Time,TemperatureF,DewpointF,PressureIn,WindDirection,WindDirectionDegrees,WindSpeedMPH,WindSpeedGustMPH,Humidity,HourlyPrecipIn,Conditions,Clouds,dailyrainin,SoftwareType,DateUTC
2013-01-08 00:03:00,29.9,23.9,30.41,WNW,287,0.0,4.0,78,0.00,,,0.08,Wunderground v.1.15,2013-01-08 05:03:00,
2013-01-08 00:04:00,29.9,23.9,30.41,WNW,287,0.0,4.0,78,0.00,,,0.08,Wunderground v.1.15,2013-01-08 05:04:00,
2013-01-08 00:06:00,29.8,24.1,30.41,WNW,292,0.0,4.0,79,0.00,,,0.08,Wunderground v.1.15,2013-01-08 05:06:00,
2013-01-08 00:07:00,29.9,24.2,30.41,WNW,283,0.0,4.0,79,0.00,,,0.08,Wunderground v.1.15,2013-01-08 05:07:00,
2013-01-08 00:10:00,29.9,23.9,30.41,NW,304,0.0,4.0,78,0.00,,,0.08,Wunderground v.1.15,2013-01-08 05:10:00,
2013-01-08 00:11:00,30.0,24.0,30.41,SSW,209,0.0,4.0,78,0.00,,,0.08,Wunderground v.1.15,2013-01-08 05:11:00,
2013-01-08 00:14:00,29.9,23.9,30.41,West,261,0.0,4.0,78,0.00,,,0.08,Wunderground v.1.15,2013-01-08 05:14:00,
2013-01-08 00:15:00,29.9,23.9,30.41,West,261,0.0,4.0,78,0.00,,,0.08,Wunderground v.1.15,2013-01-08 05:15:00,
2013-01-08 00:18:00,29.8,23.8,30.41,West,260,0.0,4.0,78,0.00,,,0.08,Wunderground v.1.15,2013-01-08 05:18:00,
2013-01-08 00:20:00,29.8,23.8,30.41,WNW,292,0.0,0.0,78,0.00,,,0.08,Wunderground v.1.15,2013-01-08 05:20:00,
2013-01-08 00:21:00,29.8,23.8,30.41,WNW,291,0.0,0.0,78,0.00,,,0.08,Wunderground v.1.15,2013-01-08 05:21:00,
2013-01-08 00:22:00,29.8,23.8,30.41,WNW,291,0.0,0.0,78,0.00,,,0.08,Wunderground v.1.15,2013-01-08 05:22:00,
2013-01-08 00:25:00,29.7,23.7,30.41,WSW,237,0.0,0.0,78,0.00,,,0.08,Wunderground v.1.15,2013-01-08 05:25:00,
2013-01-08 00:28:00,29.6,23.9,30.41,SW,225,0.0,2.0,79,0.00,,,0.08,Wunderground v.1.15,2013-01-08 05:28:00,
2013-01-08 00:30:00,29.6,23.9,30.41,West,263,0.0,0.0,79,0.00,,,0.08,Wunderground v.1.15,2013-01-08 05:30:00,
2013-01-08 00:31:00,29.7,24.0,30.41,WSW,256,1.0,1.0,79,0.00,,,0.00,Wunderground v.1.15,2013-01-08 05:31:00,
2013-01-08 00:33:00,29.7,24.0,30.41,WSW,254,1.0,6.0,79,0.00,,,0.00,Wunderground v.1.15,2013-01-08 05:33:00,
2013-01-08 00:35:00,29.7,24.0,30.41,West,259,1.0,6.0,79,0.00,,,0.00,Wunderground v.1.15,2013-01-08 05:35:00,
2013-01-08 00:36:00,29.7,24.0,30.41,WSW,238,1.0,6.0,79,0.00,,,0.00,Wunderground v.1.15,2013-01-08 05:36:00,
2013-01-08 00:41:00,29.9,24.2,30.41,West,265,0.0,2.0,79,0.00,,,0.00,Wunderground v.1.15,2013-01-08 05:41:00,
2013-01-08 00:42:00,29.9,24.2,30.41,WSW,244,1.0,2.0,79,0.00,,,0.00,Wunderground v.1.15,2013-01-08 05:42:00,
2013-01-08 00:45:00,29.9,24.2,30.41,West,280,1.0,2.0,79,0.00,,,0.00,Wunderground v.1.15,2013-01-08 05:45:00,
2013-01-08 00:47:00,29.8,23.8,30.40,West,280,0.0,2.0,78,0.00,,,0.00,Wunderground v.1.15,2013-01-08 05:47:00,
2013-01-08 00:49:00,29.7,24.0,30.40,West,269,0.0,2.0,79,0.00,,,0.00,Wunderground v.1.15,2013-01-08 05:49:00,
2013-01-08 00:51:00,29.8,24.1,30.40,WNW,288,0.0,0.0,79,0.00,,,0.00,Wunderground v.1.15,2013-01-08 05:51:00,
2013-01-08 00:54:00,29.8,24.1,30.40,West,264,0.0,1.0,79,0.00,,,0.00,Wunderground v.1.15,2013-01-08 05:54:00,
2013-01-08 00:58:00,29.9,24.2,30.40,SW,221,1.0,4.0,79,0.00,,,0.00,Wunderground v.1.15,2013-01-08 05:58:00,
2013-01-08 01:03:00,30.0,24.3,30.39,SW,227,1.0,5.0,79,0.00,,,0.00,Wunderground v.1.15,2013-01-08 06:03:00,
2013-01-08 01:04:00,30.0,24.3,30.39,West,270,0.0,5.0,79,0.00,,,0.00,Wunderground v.1.15,2013-01-08 06:04:00,
2013-01-08 01:05:00,30.0,24.3,30.39,WSW,258,0.0,5.0,79,0.00,,,0.00,Wunderground v.1.15,2013-01-08 06:05:00,
2013-01-08 01:07:00,30.1,24.4,30.39,West,263,0.0,5.0,79,0.00,,,0.00,Wunderground v.1.15,2013-01-08 06:07:00,
2013-01-08 01:10:00,30.2,24.5,30.39,ESE,107,0.0,2.0,79,0.00,,,0.00,Wunderground v.1.15,2013-01-08 06:10:00,
2013-01-08 01:11:00,30.3,24.6,30.39,SSW,207,1.0,2.0,79,0.00,,,0.00,Wunderground v.1.15,2013-01-08 06:11:00,
2013-01-08 01:14:00,30.6,24.9,30.39,West,263,1.0,5.0,79,0.00,,,0.00,Wunderground v.1.15,2013-01-08 06:14:00,
2013-01-08 01:16:00,30.6,24.6,30.39,West,263,1.0,5.0,78,0.00,,,0.00,Wunderground v.1.15,2013-01-08 06:16:00,
2013-01-08 01:20:00,30.6,24.6,30.39,West,260,1.0,1.0,78,0.00,,,0.00,Wunderground v.1.15,2013-01-08 06:20:00,
2013-01-08 01:21:00,30.6,24.6,30.39,West,268,1.0,1.0,78,0.00,,,0.00,Wunderground v.1.15,2013-01-08 06:21:00,
2013-01-08 01:26:00,30.3,24.3,30.39,West,259,1.0,4.0,78,0.00,,,0.00,Wunderground v.1.15,2013-01-08 06:26:00,
2013-01-08 01:30:00,30.1,24.1,30.39,West,275,0.0,0.0,78,0.00,,,0.00,Wunderground v.1.15,2013-01-08 06:30:00,
2013-01-08 01:31:00,30.0,24.3,30.39,West,275,0.0,5.0,79,0.00,,,0.00,Wunderground v.1.15,2013-01-08 06:31:00,
2013-01-08 01:32:00,29.9,24.2,30.39,WSW,256,0.0,5.0,79,0.00,,,0.00,Wunderground v.1.15,2013-01-08 06:32:00,
2013-01-08 01:33:00,29.8,24.1,30.39,WSW,256,0.0,5.0,79,0.00,,,0.00,Wunderground v.1.15,2013-01-08 06:33:00,
2013-01-08 01:37:00,29.4,23.7,30.39,SW,233,0.0,5.0,79,0.00,,,0.00,Wunderground v.1.15,2013-01-08 06:37:00,
2013-01-08 01:39:00,29.3,23.6,30.39,WSW,246,0.0,5.0,79,0.00,,,0.00,Wunderground v.1.15,2013-01-08 06:39:00,
2013-01-08 01:42:00,29.1,23.7,30.39,WSW,246,0.0,1.0,80,0.00,,,0.00,Wunderground v.1.15,2013-01-08 06:42:00,
2013-01-08 01:43:00,29.1,23.7,30.39,WSW,248,0.0,1.0,80,0.00,,,0.00,Wunderground v.1.15,2013-01-08 06:43:00,
2013-01-08 01:46:00,29.0,23.6,30.39,WSW,242,0.0,1.0,80,0.00,,,0.00,Wunderground v.1.15,2013-01-08 06:46:00,
2013-01-08 01:48:00,29.1,23.7,30.39,WSW,253,0.0,1.0,80,0.00,,,0.00,Wunderground v.1.15,2013-01-08 06:48:00,
2013-01-08 01:51:00,29.1,23.7,30.39,West,273,0.0,0.0,80,0.00,,,0.00,Wunderground v.1.15,2013-01-08 06:51:00,
2013-01-08 01:54:00,29.4,24.0,30.39,SSW,209,1.0,4.0,80,0.00,,,0.00,Wunderground v.1.15,2013-01-08 06:54:00,
2013-01-08 01:58:00,29.8,24.4,30.39,SW,232,1.0,4.0,80,0.00,,,0.00,Wunderground v.1.15,2013-01-08 06:58:00,
2013-01-08 01:59:00,29.8,24.4,30.39,WSW,246,1.0,4.0,80,0.00,,,0.00,Wunderground v.1.15,2013-01-08 06:59:00,
2013-01-08 02:00:00,29.9,24.5,30.39,West,264,1.0,2.0,80,0.00,,,0.00,Wunderground v.1.15,2013-01-08 07:00:00,
2013-01-08 02:05:00,29.9,24.2,30.39,West,265,1.0,6.0,79,0.00,,,0.00,Wunderground v.1.15,2013-01-08 07:05:00,
2013-01-08 02:06:00,29.8,24.1,30.39,West,270,1.0,6.0,79,0.00,,,0.00,Wunderground v.1.15,2013-01-08 07:06:00,
2013-01-08 02:09:00,29.7,24.0,30.39,West,267,1.0,6.0,79,0.00,,,0.00,Wunderground v.1.15,2013-01-08 07:09:00,
2013-01-08 02:10:00,29.7,24.0,30.39,West,262,0.0,0.0,79,0.00,,,0.00,Wunderground v.1.15,2013-01-08 07:10:00,
2013-01-08 02:11:00,29.6,23.9,30.39,West,263,0.0,0.0,79,0.00,,,0.00,Wunderground v.1.15,2013-01-08 07:11:00,
2013-01-08 02:12:00,29.6,23.9,30.40,West,263,0.0,0.0,79,0.00,,,0.00,Wunderground v.1.15,2013-01-08 07:12:00,
2013-01-08 02:15:00,29.4,23.7,30.40,SW,236,0.0,1.0,79,0.00,,,0.00,Wunderground v.1.15,2013-01-08 07:15:00,
2013-01-08 02:19:00,29.2,23.8,30.39,West,264,0.0,1.0,80,0.00,,,0.00,Wunderground v.1.15,2013-01-08 07:19:00,
2013-01-08 02:21:00,29.1,23.7,30.39,West,263,0.0,0.0,80,0.00,,,0.00,Wunderground v.1.15,2013-01-08 07:21:00,
2013-01-08 02:22:00,29.0,23.6,30.39,West,265,0.0,0.0,80,0.00,,,0.00,Wunderground v.1.15,2013-01-08 07:22:00,
2013-01-08 02:25:00,28.9,23.5,30.39,West,266,0.0,1.0,80,0.00,,,0.00,Wunderground v.1.15,2013-01-08 07:25:00,
2013-01-08 02:26:00,28.9,23.5,30.39,West,265,0.0,1.0,80,0.00,,,0.00,Wunderground v.1.15,2013-01-08 07:26:00,
2013-01-08 02:27:00,28.8,23.4,30.39,West,266,0.0,1.0,80,0.00,,,0.00,Wunderground v.1.15,2013-01-08 07:27:00,
2013-01-08 02:29:00,28.8,23.7,30.39,South,189,0.0,1.0,81,0.00,,,0.00,Wunderground v.1.15,2013-01-08 07:29:00,
2013-01-08 02:31:00,28.8,23.7,30.39,SW,231,0.0,2.0,81,0.00,,,0.00,Wunderground v.1.15,2013-01-08 07:31:00,
2013-01-08 02:32:00,28.8,23.7,30.39,SW,232,0.0,6.0,81,0.00,,,0.00,Wunderground v.1.15,2013-01-08 07:32:00,
2013-01-08 02:34:00,28.9,23.8,30.39,WSW,245,0.0,6.0,81,0.00,,,0.00,Wunderground v.1.15,2013-01-08 07:34:00,
2013-01-08 02:36:00,29.0,23.9,30.39,WSW,238,0.0,6.0,81,0.00,,,0.00,Wunderground v.1.15,2013-01-08 07:36:00,
2013-01-08 02:37:00,29.1,24.0,30.39,SW,215,0.0,6.0,81,0.00,,,0.00,Wunderground v.1.15,2013-01-08 07:37:00,
2013-01-08 02:40:00,29.2,23.8,30.39,WNW,288,0.0,0.0,80,0.00,,,0.00,Wunderground v.1.15,2013-01-08 07:40:00,
2013-01-08 02:42:00,29.3,23.9,30.39,WSW,240,0.0,2.0,80,0.00,,,0.00,Wunderground v.1.15,2013-01-08 07:42:00,
2013-01-08 02:44:00,29.5,24.1,30.39,WNW,301,0.0,2.0,80,0.00,,,0.00,Wunderground v.1.15,2013-01-08 07:44:00,
2013-01-08 02:46:00,29.6,24.2,30.39,West,266,0.0,2.0,80,0.00,,,0.00,Wunderground v.1.15,2013-01-08 07:46:00,
2013-01-08 02:47:00,29.6,24.2,30.39,West,261,0.0,2.0,80,0.00,,,0.00,Wunderground v.1.15,2013-01-08 07:47:00,
2013-01-08 02:49:00,29.7,24.3,30.39,SSW,200,1.0,3.0,80,0.00,,,0.00,Wunderground v.1.15,2013-01-08 07:49:00,
2013-01-08 02:52:00,29.7,24.0,30.39,SSW,207,1.0,2.0,79,0.00,,,0.00,Wunderground v.1.15,2013-01-08 07:52:00,
2013-01-08 02:56:00,29.8,24.1,30.39,WSW,254,1.0,2.0,79,0.00,,,0.00,Wunderground v.1.15,2013-01-08 07:56:00,
2013-01-08 02:57:00,29.8,24.1,30.39,West,281,1.0,3.0,79,0.00,,,0.00,Wunderground v.1.15,2013-01-08 07:57:00,
2013-01-08 02:58:00,29.9,24.2,30.39,NE,45,1.0,3.0,79,0.00,,,0.00,Wunderground v.1.15,2013-01-08 07:58:00,
2013-01-08 02:59:00,29.9,24.2,30.39,WNW,294,1.0,3.0,79,0.00,,,0.00,Wunderground v.1.15,2013-01-08 07:59:00,
2013-01-08 03:04:00,30.1,24.4,30.39,West,270,1.0,3.0,79,0.00,,,0.00,Wunderground v.1.15,2013-01-08 08:04:00,
2013-01-08 03:05:00,30.1,24.4,30.39,SW,236,1.0,3.0,79,0.00,,,0.00,Wunderground v.1.15,2013-01-08 08:05:00,
2013-01-08 03:06:00,30.1,24.4,30.39,West,265,1.0,3.0,79,0.00,,,0.00,Wunderground v.1.15,2013-01-08 08:06:00,
2013-01-08 03:07:00,30.1,24.4,30.39,SW,224,1.0,3.0,79,0.00,,,0.00,Wunderground v.1.15,2013-01-08 08:07:00,
2013-01-08 03:12:00,30.1,24.4,30.38,SW,225,1.0,2.0,79,0.00,,,0.00,Wunderground v.1.15,2013-01-08 08:12:00,
2013-01-08 03:13:00,30.1,24.4,30.38,WSW,245,1.0,2.0,79,0.00,,,0.00,Wunderground v.1.15,2013-01-08 08:13:00,
2013-01-08 03:15:00,30.1,24.4,30.38,SW,233,1.0,5.0,79,0.00,,,0.00,Wunderground v.1.15,2013-01-08 08:15:00,
2013-01-08 03:18:00,30.1,24.4,30.38,WSW,252,1.0,5.0,79,0.00,,,0.00,Wunderground v.1.15,2013-01-08 08:18:00,
2013-01-08 03:20:00,30.1,24.4,30.38,SW,234,1.0,1.0,79,0.00,,,0.00,Wunderground v.1.15,2013-01-08 08:20:00,
2013-01-08 03:21:00,30.1,24.4,30.38,West,259,1.0,2.0,79,0.00,,,0.00,Wunderground v.1.15,2013-01-08 08:21:00,
2013-01-08 03:27:00,30.2,24.5,30.38,West,273,1.0,4.0,79,0.00,,,0.00,Wunderground v.1.15,2013-01-08 08:27:00,
2013-01-08 03:28:00,30.2,24.5,30.37,WSW,252,1.0,4.0,79,0.00,,,0.00,Wunderground v.1.15,2013-01-08 08:28:00,
2013-01-08 03:32:00,30.3,24.6,30.37,West,267,1.0,6.0,79,0.00,,,0.00,Wunderground v.1.15,2013-01-08 08:32:00,
2013-01-08 03:34:00,30.4,24.7,30.38,West,272,1.0,6.0,79,0.00,,,0.00,Wunderground v.1.15,2013-01-08 08:34:00,
2013-01-08 03:36:00,30.5,24.8,30.38,SSW,211,1.0,6.0,79,0.00,,,0.00,Wunderground v.1.15,2013-01-08 08:36:00,
2013-01-08 03:40:00,30.6,24.9,30.37,SW,229,1.0,4.0,79,0.00,,,0.00,Wunderground v.1.15,2013-01-08 08:40:00,
2013-01-08 03:41:00,30.8,25.1,30.37,WSW,252,2.0,4.0,79,0.00,,,0.00,Wunderground v.1.15,2013-01-08 08:41:00,
2013-01-08 03:43:00,30.8,25.1,30.38,SSW,211,1.0,4.0,79,0.00,,,0.00,Wunderground v.1.15,2013-01-08 08:43:00,
2013-01-08 03:45:00,30.8,25.1,30.37,SW,219,1.0,4.0,79,0.00,,,0.00,Wunderground v.1.15,2013-01-08 08:45:00,
2013-01-08 03:48:00,31.0,24.9,30.38,WSW,255,2.0,5.0,78,0.00,,,0.00,Wunderground v.1.15,2013-01-08 08:48:00,
2013-01-08 03:49:00,31.0,24.9,30.38,WSW,241,2.0,5.0,78,0.00,,,0.00,Wunderground v.1.15,2013-01-08 08:49:00,
2013-01-08 03:51:00,31.0,24.9,30.38,WSW,255,2.0,2.0,78,0.00,,,0.00,Wunderground v.1.15,2013-01-08 08:51:00,
2013-01-08 03:54:00,31.0,24.9,30.38,WSW,257,2.0,2.0,78,0.00,,,0.00,Wunderground v.1.15,2013-01-08 08:54:00,
2013-01-08 03:55:00,30.9,24.8,30.38,WNW,290,2.0,6.0,78,0.00,,,0.00,Wunderground v.1.15,2013-01-08 08:55:00,
2013-01-08 03:59:00,30.8,25.1,30.38,West,271,2.0,6.0,79,0.00,,,0.00,Wunderground v.1.15,2013-01-08 08:59:00,
2013-01-08 04:00:00,30.8,25.1,30.37,WNW,285,2.0,2.0,79,0.00,,,0.00,Wunderground v.1.15,2013-01-08 09:00:00,
2013-01-08 04:03:00,30.8,25.1,30.37,WSW,239,2.0,7.0,79,0.00,,,0.00,Wunderground v.1.15,2013-01-08 09:03:00,
2013-01-08 04:05:00,30.7,25.0,30.37,West,259,2.0,7.0,79,0.00,,,0.00,Wunderground v.1.15,2013-01-08 09:05:00,
2013-01-08 04:06:00,30.7,25.0,30.37,West,261,2.0,7.0,79,0.00,,,0.00,Wunderground v.1.15,2013-01-08 09:06:00,
2013-01-08 04:11:00,30.6,24.9,30.38,West,267,1.0,4.0,79,0.00,,,0.00,Wunderground v.1.15,2013-01-08 09:11:00,
2013-01-08 04:12:00,30.5,24.8,30.38,WSW,256,1.0,4.0,79,0.00,,,0.00,Wunderground v.1.15,2013-01-08 09:12:00,
2013-01-08 04:13:00,30.5,24.8,30.38,WNW,286,1.0,4.0,79,0.00,,,0.00,Wunderground v.1.15,2013-01-08 09:13:00,
2013-01-08 04:14:00,30.5,24.8,30.38,WNW,288,1.0,4.0,79,0.00,,,0.00,Wunderground v.1.15,2013-01-08 09:14:00,
2013-01-08 04:19:00,30.3,24.6,30.38,WNW,283,2.0,5.0,79,0.00,,,0.00,Wunderground v.1.15,2013-01-08 09:19:00,
2013-01-08 04:20:00,30.3,24.9,30.38,WSW,248,2.0,3.0,80,0.00,,,0.00,Wunderground v.1.15,2013-01-08 09:20:00,
2013-01-08 04:25:00,30.1,24.7,30.38,West,265,2.0,4.0,80,0.00,,,0.00,Wunderground v.1.15,2013-01-08 09:25:00,
2013-01-08 04:26:00,30.1,24.7,30.38,West,264,1.0,4.0,80,0.00,,,0.00,Wunderground v.1.15,2013-01-08 09:26:00,
2013-01-08 04:27:00,30.1,24.7,30.38,WNW,289,1.0,4.0,80,0.00,,,0.00,Wunderground v.1.15,2013-01-08 09:27:00,
2013-01-08 04:32:00,30.1,24.7,30.38,West,263,1.0,9.0,80,0.00,,,0.00,Wunderground v.1.15,2013-01-08 09:32:00,
2013-01-08 04:35:00,30.1,24.7,30.38,West,267,2.0,9.0,80,0.00,,,0.00,Wunderground v.1.15,2013-01-08 09:35:00,
2013-01-08 04:36:00,30.1,24.7,30.38,WNW,298,2.0,9.0,80,0.00,,,0.00,Wunderground v.1.15,2013-01-08 09:36:00,
2013-01-08 04:38:00,30.0,24.6,30.38,West,279,2.0,9.0,80,0.00,,,0.00,Wunderground v.1.15,2013-01-08 09:38:00,
2013-01-08 04:39:00,29.9,24.5,30.38,West,261,2.0,9.0,80,0.00,,,0.00,Wunderground v.1.15,2013-01-08 09:39:00,
2013-01-08 04:41:00,29.9,24.5,30.38,West,269,2.0,2.0,80,0.00,,,0.00,Wunderground v.1.15,2013-01-08 09:41:00,
2013-01-08 04:42:00,29.9,24.8,30.38,West,273,2.0,2.0,81,0.00,,,0.00,Wunderground v.1.15,2013-01-08 09:42:00,
2013-01-08 04:46:00,29.8,24.7,30.38,WSW,254,2.0,4.0,81,0.00,,,0.00,Wunderground v.1.15,2013-01-08 09:46:00,
2013-01-08 04:49:00,29.8,24.7,30.38,West,273,2.0,4.0,81,0.00,,,0.00,Wunderground v.1.15,2013-01-08 09:49:00,
2013-01-08 04:52:00,29.8,24.7,30.38,WNW,283,2.0,3.0,81,0.00,,,0.00,Wunderground v.1.15,2013-01-08 09:52:00,
2013-01-08 04:54:00,29.7,24.6,30.38,WNW,288,1.0,3.0,81,0.00,,,0.00,Wunderground v.1.15,2013-01-08 09:54:00,
2013-01-08 04:57:00,29.6,24.5,30.38,West,263,1.0,3.0,81,0.00,,,0.00,Wunderground v.1.15,2013-01-08 09:57:00,
2013-01-08 04:59:00,29.6,24.5,30.38,West,267,2.0,3.0,81,0.00,,,0.00,Wunderground v.1.15,2013-01-08 09:59:00,
2013-01-08 05:00:00,29.6,24.5,30.38,West,264,2.0,2.0,81,0.00,,,0.00,Wunderground v.1.15,2013-01-08 10:00:00,
2013-01-08 05:01:00,29.7,24.6,30.38,West,265,2.0,6.0,81,0.00,,,0.00,Wunderground v.1.15,2013-01-08 10:01:00,
2013-01-08 05:05:00,29.6,24.5,30.38,West,260,2.0,6.0,81,0.00,,,0.00,Wunderground v.1.15,2013-01-08 10:05:00,
2013-01-08 05:06:00,29.6,24.5,30.38,West,259,2.0,6.0,81,0.00,,,0.00,Wunderground v.1.15,2013-01-08 10:06:00,
2013-01-08 05:07:00,29.5,24.4,30.38,West,272,1.0,6.0,81,0.00,,,0.00,Wunderground v.1.15,2013-01-08 10:07:00,
2013-01-08 05:11:00,29.5,24.7,30.38,West,279,1.0,1.0,82,0.00,,,0.00,Wunderground v.1.15,2013-01-08 10:11:00,
2013-01-08 05:13:00,29.6,24.8,30.38,West,271,1.0,3.0,82,0.00,,,0.00,Wunderground v.1.15,2013-01-08 10:13:00,
2013-01-08 05:16:00,29.6,24.8,30.38,SW,234,1.0,3.0,82,0.00,,,0.00,Wunderground v.1.15,2013-01-08 10:16:00,
2013-01-08 05:18:00,29.6,24.8,30.38,West,277,1.0,3.0,82,0.00,,,0.00,Wunderground v.1.15,2013-01-08 10:18:00,
2013-01-08 05:20:00,29.7,24.9,30.38,West,274,1.0,1.0,82,0.00,,,0.00,Wunderground v.1.15,2013-01-08 10:20:00,
2013-01-08 05:24:00,29.6,24.8,30.38,SSW,198,0.0,2.0,82,0.00,,,0.00,Wunderground v.1.15,2013-01-08 10:24:00,
2013-01-08 05:25:00,29.6,24.8,30.38,SW,233,1.0,2.0,82,0.00,,,0.00,Wunderground v.1.15,2013-01-08 10:25:00,
2013-01-08 05:26:00,29.6,24.8,30.37,WSW,250,0.0,2.0,82,0.00,,,0.00,Wunderground v.1.15,2013-01-08 10:26:00,
2013-01-08 05:30:00,29.5,24.7,30.38,West,273,0.0,3.0,82,0.00,,,0.00,Wunderground v.1.15,2013-01-08 10:30:00,
2013-01-08 05:31:00,29.5,24.7,30.37,West,275,0.0,6.0,82,0.00,,,0.00,Wunderground v.1.15,2013-01-08 10:31:00,
2013-01-08 05:33:00,29.5,24.7,30.37,SW,223,1.0,6.0,82,0.00,,,0.00,Wunderground v.1.15,2013-01-08 10:33:00,
2013-01-08 05:35:00,29.5,24.7,30.37,WNW,295,1.0,6.0,82,0.00,,,0.00,Wunderground v.1.15,2013-01-08 10:35:00,
2013-01-08 05:39:00,29.4,24.6,30.38,WNW,288,0.0,6.0,82,0.00,,,0.00,Wunderground v.1.15,2013-01-08 10:39:00,
2013-01-08 05:40:00,29.4,24.6,30.38,West,269,0.0,0.0,82,0.00,,,0.00,Wunderground v.1.15,2013-01-08 10:40:00,
2013-01-08 05:43:00,29.4,24.6,30.38,WNW,283,1.0,2.0,82,0.00,,,0.00,Wunderground v.1.15,2013-01-08 10:43:00,
2013-01-08 05:44:00,29.4,24.6,30.38,West,275,1.0,2.0,82,0.00,,,0.00,Wunderground v.1.15,2013-01-08 10:44:00,
2013-01-08 05:46:00,29.3,24.8,30.38,West,277,1.0,2.0,83,0.00,,,0.00,Wunderground v.1.15,2013-01-08 10:46:00,
2013-01-08 05:51:00,29.4,24.9,30.38,WNW,286,1.0,2.0,83,0.00,,,0.00,Wunderground v.1.15,2013-01-08 10:51:00,
2013-01-08 05:52:00,29.4,24.9,30.38,West,277,1.0,2.0,83,0.00,,,0.00,Wunderground v.1.15,2013-01-08 10:52:00,
2013-01-08 05:54:00,29.4,24.9,30.38,West,269,1.0,2.0,83,0.00,,,0.00,Wunderground v.1.15,2013-01-08 10:54:00,
2013-01-08 05:56:00,29.4,24.9,30.38,West,264,1.0,2.0,83,0.00,,,0.00,Wunderground v.1.15,2013-01-08 10:56:00,
2013-01-08 06:00:00,29.4,24.9,30.38,West,266,1.0,1.0,83,0.00,,,0.00,Wunderground v.1.15,2013-01-08 11:00:00,
2013-01-08 06:01:00,29.4,24.9,30.38,West,268,1.0,3.0,83,0.00,,,0.00,Wunderground v.1.15,2013-01-08 11:01:00,
2013-01-08 06:03:00,29.4,24.9,30.38,West,270,1.0,6.0,83,0.00,,,0.00,Wunderground v.1.15,2013-01-08 11:03:00,
2013-01-08 06:04:00,29.4,24.9,30.38,West,273,1.0,6.0,83,0.00,,,0.00,Wunderground v.1.15,2013-01-08 11:04:00,
2013-01-08 06:07:00,29.4,24.9,30.38,West,279,1.0,6.0,83,0.00,,,0.00,Wunderground v.1.15,2013-01-08 11:07:00,
2013-01-08 06:08:00,29.4,24.9,30.38,West,269,1.0,6.0,83,0.00,,,0.00,Wunderground v.1.15,2013-01-08 11:08:00,
2013-01-08 06:10:00,29.3,24.8,30.38,West,269,1.0,1.0,83,0.00,,,0.00,Wunderground v.1.15,2013-01-08 11:10:00,
2013-01-08 06:13:00,29.2,24.7,30.38,West,265,0.0,2.0,83,0.00,,,0.00,Wunderground v.1.15,2013-01-08 11:13:00,
2013-01-08 06:14:00,29.2,24.7,30.38,West,271,0.0,2.0,83,0.00,,,0.00,Wunderground v.1.15,2013-01-08 11:14:00,
2013-01-08 06:18:00,29.2,24.7,30.38,West,275,0.0,2.0,83,0.00,,,0.00,Wunderground v.1.15,2013-01-08 11:18:00,
2013-01-08 06:19:00,29.2,24.7,30.38,West,265,0.0,2.0,83,0.00,,,0.00,Wunderground v.1.15,2013-01-08 11:19:00,
2013-01-08 06:22:00,29.3,24.8,30.39,West,273,1.0,2.0,83,0.00,,,0.00,Wunderground v.1.15,2013-01-08 11:22:00,
2013-01-08 06:23:00,29.4,24.9,30.39,West,275,1.0,2.0,83,0.00,,,0.00,Wunderground v.1.15,2013-01-08 11:23:00,
2013-01-08 06:24:00,29.4,25.2,30.39,West,274,1.0,2.0,84,0.00,,,0.00,Wunderground v.1.15,2013-01-08 11:24:00,
2013-01-08 06:26:00,29.4,24.9,30.39,West,281,1.0,2.0,83,0.00,,,0.00,Wunderground v.1.15,2013-01-08 11:26:00,
2013-01-08 06:29:00,29.3,24.8,30.39,WNW,290,1.0,2.0,83,0.00,,,0.00,Wunderground v.1.15,2013-01-08 11:29:00,
2013-01-08 06:32:00,29.2,24.7,30.39,WNW,288,0.0,5.0,83,0.00,,,0.00,Wunderground v.1.15,2013-01-08 11:32:00,
2013-01-08 06:33:00,29.1,24.6,30.39,WNW,287,0.0,5.0,83,0.00,,,0.00,Wunderground v.1.15,2013-01-08 11:33:00,
2013-01-08 06:34:00,29.1,24.6,30.39,WNW,287,0.0,5.0,83,0.00,,,0.00,Wunderground v.1.15,2013-01-08 11:34:00,
2013-01-08 06:38:00,28.9,24.7,30.40,WNW,284,0.0,5.0,84,0.00,,,0.00,Wunderground v.1.15,2013-01-08 11:38:00,
2013-01-08 06:40:00,28.9,24.7,30.40,West,280,0.0,0.0,84,0.00,,,0.00,Wunderground v.1.15,2013-01-08 11:40:00,
2013-01-08 06:42:00,28.8,24.6,30.40,West,279,0.0,0.0,84,0.00,,,0.00,Wunderground v.1.15,2013-01-08 11:42:00,
2013-01-08 06:43:00,28.8,24.6,30.41,West,279,0.0,0.0,84,0.00,,,0.00,Wunderground v.1.15,2013-01-08 11:43:00,
2013-01-08 06:46:00,28.9,24.7,30.41,West,276,0.0,0.0,84,0.00,,,0.00,Wunderground v.1.15,2013-01-08 11:46:00,
2013-01-08 06:47:00,28.9,24.7,30.41,West,275,0.0,1.0,84,0.00,,,0.00,Wunderground v.1.15,2013-01-08 11:47:00,
2013-01-08 06:48:00,28.9,24.7,30.41,SW,219,0.0,3.0,84,0.00,,,0.00,Wunderground v.1.15,2013-01-08 11:48:00,
2013-01-08 06:49:00,28.9,24.7,30.41,West,266,0.0,4.0,84,0.00,,,0.00,Wunderground v.1.15,2013-01-08 11:49:00,
2013-01-08 06:53:00,29.0,24.8,30.41,West,277,1.0,2.0,84,0.00,,,0.00,Wunderground v.1.15,2013-01-08 11:53:00,
2013-01-08 06:54:00,29.0,24.8,30.41,West,278,1.0,2.0,84,0.00,,,0.00,Wunderground v.1.15,2013-01-08 11:54:00,
2013-01-08 06:56:00,28.9,24.7,30.41,West,278,1.0,2.0,84,0.00,,,0.00,Wunderground v.1.15,2013-01-08 11:56:00,
2013-01-08 06:58:00,28.9,24.7,30.41,West,277,1.0,2.0,84,0.00,,,0.00,Wunderground v.1.15,2013-01-08 11:58:00,
2013-01-08 06:59:00,28.9,24.7,30.41,West,277,1.0,2.0,84,0.00,,,0.00,Wunderground v.1.15,2013-01-08 11:59:00,
2013-01-08 07:01:00,28.9,24.7,30.41,West,276,0.0,5.0,84,0.00,,,0.00,Wunderground v.1.15,2013-01-08 12:01:00,
2013-01-08 07:02:00,28.9,24.7,30.41,WNW,284,0.0,5.0,84,0.00,,,0.00,Wunderground v.1.15,2013-01-08 12:02:00,
2013-01-08 07:04:00,28.9,24.7,30.41,WNW,284,0.0,5.0,84,0.00,,,0.00,Wunderground v.1.15,2013-01-08 12:04:00,
2013-01-08 07:06:00,28.9,24.7,30.41,WNW,287,0.0,5.0,84,0.00,,,0.00,Wunderground v.1.15,2013-01-08 12:06:00,
2013-01-08 07:08:00,29.0,24.8,30.41,West,279,0.0,5.0,84,0.00,,,0.00,Wunderground v.1.15,2013-01-08 12:08:00,
2013-01-08 07:11:00,29.0,24.8,30.41,West,278,0.0,0.0,84,0.00,,,0.00,Wunderground v.1.15,2013-01-08 12:11:00,
2013-01-08 07:13:00,29.0,24.8,30.41,West,276,0.0,1.0,84,0.00,,,0.00,Wunderground v.1.15,2013-01-08 12:13:00,
2013-01-08 07:14:00,29.0,24.8,30.41,West,274,1.0,1.0,84,0.00,,,0.00,Wunderground v.1.15,2013-01-08 12:14:00,
2013-01-08 07:17:00,29.0,24.8,30.41,West,277,1.0,2.0,84,0.00,,,0.00,Wunderground v.1.15,2013-01-08 12:17:00,
2013-01-08 07:18:00,29.1,24.9,30.41,West,279,1.0,2.0,84,0.00,,,0.00,Wunderground v.1.15,2013-01-08 12:18:00,
2013-01-08 07:21:00,29.0,24.8,30.41,West,279,1.0,1.0,84,0.00,,,0.00,Wunderground v.1.15,2013-01-08 12:21:00,
2013-01-08 07:22:00,29.0,24.8,30.41,West,279,1.0,1.0,84,0.00,,,0.00,Wunderground v.1.15,2013-01-08 12:22:00,
2013-01-08 07:23:00,29.0,24.8,30.41,West,279,0.0,1.0,84,0.00,,,0.00,Wunderground v.1.15,2013-01-08 12:23:00,
2013-01-08 07:26:00,28.9,25.0,30.41,West,276,0.0,1.0,85,0.00,,,0.00,Wunderground v.1.15,2013-01-08 12:26:00,
2013-01-08 07:28:00,28.9,25.0,30.41,West,275,0.0,1.0,85,0.00,,,0.00,Wunderground v.1.15,2013-01-08 12:28:00,
2013-01-08 07:32:00,29.0,25.1,30.41,West,272,0.0,4.0,85,0.00,,,0.00,Wunderground v.1.15,2013-01-08 12:32:00,
2013-01-08 07:33:00,29.0,25.1,30.41,West,271,0.0,4.0,85,0.00,,,0.00,Wunderground v.1.15,2013-01-08 12:33:00,
2013-01-08 07:34:00,29.0,25.1,30.41,West,268,0.0,4.0,85,0.00,,,0.00,Wunderground v.1.15,2013-01-08 12:34:00,
2013-01-08 07:38:00,29.2,25.3,30.41,WNW,290,1.0,4.0,85,0.00,,,0.00,Wunderground v.1.15,2013-01-08 12:38:00,
2013-01-08 07:41:00,29.3,25.1,30.42,West,281,1.0,1.0,84,0.00,,,0.00,Wunderground v.1.15,2013-01-08 12:41:00,
2013-01-08 07:42:00,29.3,25.1,30.42,West,277,1.0,2.0,84,0.00,,,0.00,Wunderground v.1.15,2013-01-08 12:42:00,
2013-01-08 07:43:00,29.3,25.4,30.42,West,272,1.0,2.0,85,0.00,,,0.00,Wunderground v.1.15,2013-01-08 12:43:00,
2013-01-08 07:49:00,29.4,25.2,30.42,West,267,1.0,2.0,84,0.00,,,0.00,Wunderground v.1.15,2013-01-08 12:49:00,
2013-01-08 07:51:00,29.3,25.1,30.42,West,271,1.0,1.0,84,0.00,,,0.00,Wunderground v.1.15,2013-01-08 12:51:00,
2013-01-08 07:55:00,29.3,25.4,30.42,West,268,1.0,2.0,85,0.00,,,0.00,Wunderground v.1.15,2013-01-08 12:55:00,
2013-01-08 07:56:00,29.3,25.1,30.42,West,261,1.0,2.0,84,0.00,,,0.00,Wunderground v.1.15,2013-01-08 12:56:00,
2013-01-08 07:57:00,29.3,25.1,30.42,West,263,0.0,2.0,84,0.00,,,0.00,Wunderground v.1.15,2013-01-08 12:57:00,
2013-01-08 08:01:00,29.4,25.4,30.42,West,272,0.0,3.0,85,0.00,,,0.00,Wunderground v.1.15,2013-01-08 13:01:00,
2013-01-08 08:03:00,29.4,25.4,30.42,West,272,0.0,3.0,85,0.00,,,0.00,Wunderground v.1.15,2013-01-08 13:03:00,
2013-01-08 08:06:00,29.6,25.6,30.42,West,271,1.0,3.0,85,0.00,,,0.00,Wunderground v.1.15,2013-01-08 13:06:00,
2013-01-08 08:09:00,29.8,25.8,30.42,West,271,1.0,4.0,85,0.00,,,0.00,Wunderground v.1.15,2013-01-08 13:09:00,
2013-01-08 08:10:00,29.9,25.9,30.42,West,271,1.0,1.0,85,0.00,,,0.00,Wunderground v.1.15,2013-01-08 13:10:00,
2013-01-08 08:13:00,30.2,25.9,30.43,WNW,289,2.0,2.0,84,0.00,,,0.00,Wunderground v.1.15,2013-01-08 13:13:00,
2013-01-08 08:15:00,30.4,26.1,30.42,WNW,286,2.0,3.0,84,0.00,,,0.00,Wunderground v.1.15,2013-01-08 13:15:00,
2013-01-08 08:16:00,30.4,26.1,30.42,West,270,2.0,3.0,84,0.00,,,0.00,Wunderground v.1.15,2013-01-08 13:16:00,
2013-01-08 08:18:00,30.8,26.2,30.42,West,277,1.0,3.0,83,0.00,,,0.00,Wunderground v.1.15,2013-01-08 13:18:00,
2013-01-08 08:21:00,31.2,26.6,30.42,West,275,1.0,1.0,83,0.00,,,0.00,Wunderground v.1.15,2013-01-08 13:21:00,
2013-01-08 08:22:00,31.3,26.7,30.42,West,275,1.0,1.0,83,0.00,,,0.00,Wunderground v.1.15,2013-01-08 13:22:00,
2013-01-08 08:25:00,31.5,26.6,30.42,West,275,1.0,1.0,82,0.00,,,0.00,Wunderground v.1.15,2013-01-08 13:25:00,
2013-01-08 08:27:00,31.6,26.7,30.42,West,275,0.0,1.0,82,0.00,,,0.00,Wunderground v.1.15,2013-01-08 13:27:00,
2013-01-08 08:28:00,31.7,26.8,30.42,West,275,1.0,2.0,82,0.00,,,0.00,Wunderground v.1.15,2013-01-08 13:28:00,
2013-01-08 08:31:00,32.0,27.1,30.42,West,278,1.0,4.0,82,0.00,,,0.00,Wunderground v.1.15,2013-01-08 13:31:00,
2013-01-08 08:33:00,32.2,27.0,30.42,West,276,1.0,4.0,81,0.00,,,0.00,Wunderground v.1.15,2013-01-08 13:33:00,
2013-01-08 08:34:00,32.3,27.1,30.42,WNW,290,1.0,4.0,81,0.00,,,0.00,Wunderground v.1.15,2013-01-08 13:34:00,
2013-01-08 08:35:00,32.4,27.2,30.42,West,275,2.0,4.0,81,0.00,,,0.00,Wunderground v.1.15,2013-01-08 13:35:00,
2013-01-08 08:39:00,32.5,27.0,30.42,West,280,2.0,4.0,80,0.00,,,0.00,Wunderground v.1.15,2013-01-08 13:39:00,
2013-01-08 08:43:00,32.4,26.9,30.42,WNW,284,2.0,4.0,80,0.00,,,0.00,Wunderground v.1.15,2013-01-08 13:43:00,
2013-01-08 08:44:00,32.4,26.9,30.42,West,281,2.0,4.0,80,0.00,,,0.00,Wunderground v.1.15,2013-01-08 13:44:00,
2013-01-08 08:45:00,32.5,27.0,30.42,WNW,292,2.0,4.0,80,0.00,,,0.00,Wunderground v.1.15,2013-01-08 13:45:00,
2013-01-08 08:48:00,32.4,26.9,30.42,West,280,1.0,4.0,80,0.00,,,0.00,Wunderground v.1.15,2013-01-08 13:48:00,
2013-01-08 08:51:00,32.4,26.9,30.42,WNW,287,1.0,1.0,80,0.00,,,0.00,Wunderground v.1.15,2013-01-08 13:51:00,
2013-01-08 08:54:00,32.4,26.9,30.42,West,275,1.0,1.0,80,0.00,,,0.00,Wunderground v.1.15,2013-01-08 13:54:00,
2013-01-08 08:56:00,32.4,26.9,30.42,West,275,1.0,1.0,80,0.00,,,0.00,Wunderground v.1.15,2013-01-08 13:56:00,
2013-01-08 08:59:00,32.3,26.8,30.42,West,281,0.0,2.0,80,0.00,,,0.00,Wunderground v.1.15,2013-01-08 13:59:00,
2013-01-08 09:03:00,32.3,26.8,30.42,West,279,1.0,4.0,80,0.00,,,0.00,Wunderground v.1.15,2013-01-08 14:03:00,
2013-01-08 09:05:00,32.3,26.8,30.42,West,279,1.0,4.0,80,0.00,,,0.00,Wunderground v.1.15,2013-01-08 14:05:00,
2013-01-08 09:06:00,32.3,26.8,30.42,West,277,1.0,4.0,80,0.00,,,0.00,Wunderground v.1.15,2013-01-08 14:06:00,
2013-01-08 09:07:00,32.3,26.8,30.42,West,277,1.0,4.0,80,0.00,,,0.00,Wunderground v.1.15,2013-01-08 14:07:00,
2013-01-08 09:12:00,32.1,26.6,30.42,West,281,0.0,1.0,80,0.00,,,0.00,Wunderground v.1.15,2013-01-08 14:12:00,
2013-01-08 09:13:00,32.1,26.6,30.42,West,281,0.0,1.0,80,0.00,,,0.00,Wunderground v.1.15,2013-01-08 14:13:00,
2013-01-08 09:15:00,32.0,26.8,30.42,West,281,0.0,1.0,81,0.00,,,0.00,Wunderground v.1.15,2013-01-08 14:15:00,
2013-01-08 09:18:00,31.9,26.7,30.42,WNW,285,1.0,3.0,81,0.00,,,0.00,Wunderground v.1.15,2013-01-08 14:18:00,
2013-01-08 09:19:00,31.9,26.7,30.42,WNW,283,1.0,3.0,81,0.00,,,0.00,Wunderground v.1.15,2013-01-08 14:19:00,
2013-01-08 09:20:00,32.0,26.8,30.42,West,281,1.0,1.0,81,0.00,,,0.00,Wunderground v.1.15,2013-01-08 14:20:00,
2013-01-08 09:21:00,32.0,26.8,30.42,West,281,1.0,2.0,81,0.00,,,0.00,Wunderground v.1.15,2013-01-08 14:21:00,
2013-01-08 09:23:00,32.1,26.9,30.42,West,279,1.0,2.0,81,0.00,,,0.00,Wunderground v.1.15,2013-01-08 14:23:00,
2013-01-08 09:25:00,32.1,26.9,30.42,West,279,2.0,2.0,81,0.00,,,0.00,Wunderground v.1.15,2013-01-08 14:25:00,
2013-01-08 09:26:00,32.1,26.9,30.42,WNW,283,2.0,2.0,81,0.00,,,0.00,Wunderground v.1.15,2013-01-08 14:26:00,
2013-01-08 09:27:00,32.2,27.0,30.42,WNW,283,2.0,2.0,81,0.00,,,0.00,Wunderground v.1.15,2013-01-08 14:27:00,
2013-01-08 09:30:00,32.3,26.8,30.43,WNW,283,1.0,3.0,80,0.00,,,0.00,Wunderground v.1.15,2013-01-08 14:30:00,
2013-01-08 09:31:00,32.3,26.8,30.42,WNW,285,1.0,4.0,80,0.00,,,0.00,Wunderground v.1.15,2013-01-08 14:31:00,
2013-01-08 09:36:00,32.5,27.0,30.43,West,281,1.0,4.0,80,0.00,,,0.00,Wunderground v.1.15,2013-01-08 14:36:00,
2013-01-08 09:40:00,32.4,26.9,30.42,West,271,2.0,3.0,80,0.00,,,0.00,Wunderground v.1.15,2013-01-08 14:40:00,
2013-01-08 09:41:00,32.4,26.9,30.42,WNW,282,2.0,3.0,80,0.00,,,0.00,Wunderground v.1.15,2013-01-08 14:41:00,
2013-01-08 09:42:00,32.4,26.9,30.42,WNW,283,2.0,3.0,80,0.00,,,0.00,Wunderground v.1.15,2013-01-08 14:42:00,
2013-01-08 09:43:00,32.5,27.0,30.42,WNW,286,1.0,3.0,80,0.00,,,0.00,Wunderground v.1.15,2013-01-08 14:43:00,
2013-01-08 09:46:00,32.5,27.3,30.42,WNW,284,1.0,3.0,81,0.00,,,0.00,Wunderground v.1.15,2013-01-08 14:46:00,
2013-01-08 09:47:00,32.5,27.3,30.42,WNW,284,1.0,3.0,81,0.00,,,0.00,Wunderground v.1.15,2013-01-08 14:47:00,
2013-01-08 09:50:00,32.5,27.0,30.42,West,273,1.0,1.0,80,0.00,,,0.00,Wunderground v.1.15,2013-01-08 14:50:00,
2013-01-08 09:52:00,32.6,27.1,30.42,West,279,0.0,1.0,80,0.00,,,0.00,Wunderground v.1.15,2013-01-08 14:52:00,
2013-01-08 09:53:00,32.6,27.4,30.42,WNW,295,0.0,3.0,81,0.00,,,0.00,Wunderground v.1.15,2013-01-08 14:53:00,
2013-01-08 09:58:00,32.8,27.3,30.42,West,279,1.0,3.0,80,0.00,,,0.00,Wunderground v.1.15,2013-01-08 14:58:00,
2013-01-08 09:59:00,32.9,27.4,30.42,West,278,1.0,3.0,80,0.00,,,0.00,Wunderground v.1.15,2013-01-08 14:59:00,
2013-01-08 10:01:00,32.9,27.4,30.43,West,279,1.0,3.0,80,0.00,,,0.00,Wunderground v.1.15,2013-01-08 15:01:00,
2013-01-08 10:04:00,32.8,27.3,30.42,WNW,294,2.0,3.0,80,0.00,,,0.00,Wunderground v.1.15,2013-01-08 15:04:00,
2013-01-08 10:05:00,32.8,27.3,30.42,WNW,284,2.0,3.0,80,0.00,,,0.00,Wunderground v.1.15,2013-01-08 15:05:00,
2013-01-08 10:08:00,32.7,27.2,30.43,West,276,2.0,3.0,80,0.00,,,0.00,Wunderground v.1.15,2013-01-08 15:08:00,
2013-01-08 10:13:00,32.6,27.1,30.43,West,272,1.0,3.0,80,0.00,,,0.00,Wunderground v.1.15,2013-01-08 15:13:00,
2013-01-08 10:14:00,32.6,27.1,30.43,West,275,1.0,3.0,80,0.00,,,0.00,Wunderground v.1.15,2013-01-08 15:14:00,
2013-01-08 10:15:00,32.6,27.1,30.43,West,275,1.0,3.0,80,0.00,,,0.00,Wunderground v.1.15,2013-01-08 15:15:00,
2013-01-08 10:17:00,32.6,27.4,30.43,West,276,1.0,3.0,81,0.00,,,0.00,Wunderground v.1.15,2013-01-08 15:17:00,
2013-01-08 10:20:00,32.7,27.5,30.43,West,276,1.0,2.0,81,0.00,,,0.00,Wunderground v.1.15,2013-01-08 15:20:00,
2013-01-08 10:21:00,32.7,27.5,30.43,West,276,1.0,2.0,81,0.00,,,0.00,Wunderground v.1.15,2013-01-08 15:21:00,
2013-01-08 10:22:00,32.8,27.3,30.43,WNW,296,1.0,3.0,80,0.00,,,0.00,Wunderground v.1.15,2013-01-08 15:22:00,
2013-01-08 10:23:00,32.8,27.3,30.43,WNW,292,1.0,3.0,80,0.00,,,0.00,Wunderground v.1.15,2013-01-08 15:23:00,
2013-01-08 10:29:00,33.2,27.7,30.43,WNW,284,1.0,3.0,80,0.00,,,0.00,Wunderground v.1.15,2013-01-08 15:29:00,
2013-01-08 10:30:00,33.3,27.8,30.43,WNW,284,1.0,1.0,80,0.00,,,0.00,Wunderground v.1.15,2013-01-08 15:30:00,
2013-01-08 10:31:00,33.3,27.8,30.43,WNW,284,1.0,4.0,80,0.00,,,0.00,Wunderground v.1.15,2013-01-08 15:31:00,
2013-01-08 10:33:00,33.5,28.3,30.43,WNW,284,0.0,4.0,81,0.00,,,0.00,Wunderground v.1.15,2013-01-08 15:33:00,
2013-01-08 10:36:00,33.6,28.1,30.43,WNW,284,0.0,4.0,80,0.00,,,0.00,Wunderground v.1.15,2013-01-08 15:36:00,
2013-01-08 10:37:00,33.7,28.2,30.43,WNW,286,0.0,4.0,80,0.00,,,0.00,Wunderground v.1.15,2013-01-08 15:37:00,
2013-01-08 10:38:00,33.7,28.2,30.43,WNW,286,1.0,4.0,80,0.00,,,0.00,Wunderground v.1.15,2013-01-08 15:38:00,
2013-01-08 10:39:00,33.8,28.0,30.43,WNW,285,1.0,4.0,79,0.00,,,0.00,Wunderground v.1.15,2013-01-08 15:39:00,
2013-01-08 10:44:00,34.0,28.2,30.43,West,269,2.0,4.0,79,0.00,,,0.00,Wunderground v.1.15,2013-01-08 15:44:00,
2013-01-08 10:45:00,34.1,28.3,30.44,WNW,286,2.0,4.0,79,0.00,,,0.00,Wunderground v.1.15,2013-01-08 15:45:00,
2013-01-08 10:50:00,34.4,28.6,30.43,West,279,2.0,2.0,79,0.00,,,0.00,Wunderground v.1.15,2013-01-08 15:50:00,
2013-01-08 10:51:00,34.4,28.2,30.43,West,281,2.0,2.0,78,0.00,,,0.00,Wunderground v.1.15,2013-01-08 15:51:00,
2013-01-08 10:53:00,34.4,28.2,30.43,West,275,2.0,2.0,78,0.00,,,0.00,Wunderground v.1.15,2013-01-08 15:53:00,
2013-01-08 10:55:00,34.4,28.2,30.43,WNW,288,2.0,3.0,78,0.00,,,0.00,Wunderground v.1.15,2013-01-08 15:55:00,
2013-01-08 10:58:00,34.4,28.2,30.43,West,277,2.0,4.0,78,0.00,,,0.00,Wunderground v.1.15,2013-01-08 15:58:00,
2013-01-08 11:00:00,34.4,28.2,30.43,West,277,2.0,2.0,78,0.00,,,0.00,Wunderground v.1.15,2013-01-08 16:00:00,
2013-01-08 11:04:00,34.4,28.2,30.43,WNW,290,2.0,4.0,78,0.00,,,0.00,Wunderground v.1.15,2013-01-08 16:04:00,
2013-01-08 11:06:00,34.5,28.3,30.43,WNW,296,2.0,4.0,78,0.00,,,0.00,Wunderground v.1.15,2013-01-08 16:06:00,
2013-01-08 11:07:00,34.5,28.3,30.43,WNW,291,1.0,4.0,78,0.00,,,0.00,Wunderground v.1.15,2013-01-08 16:07:00,
2013-01-08 11:08:00,34.6,28.4,30.43,WNW,286,1.0,4.0,78,0.00,,,0.00,Wunderground v.1.15,2013-01-08 16:08:00,
2013-01-08 11:12:00,34.7,28.5,30.43,West,278,1.0,1.0,78,0.00,,,0.00,Wunderground v.1.15,2013-01-08 16:12:00,
2013-01-08 11:13:00,34.7,28.5,30.43,WNW,291,1.0,1.0,78,0.00,,,0.00,Wunderground v.1.15,2013-01-08 16:13:00,
2013-01-08 11:15:00,34.7,28.2,30.43,NW,323,1.0,2.0,77,0.00,,,0.00,Wunderground v.1.15,2013-01-08 16:15:00,
2013-01-08 11:17:00,34.7,28.2,30.42,WNW,288,1.0,2.0,77,0.00,,,0.00,Wunderground v.1.15,2013-01-08 16:17:00,
2013-01-08 11:18:00,34.8,28.3,30.42,WNW,287,1.0,2.0,77,0.00,,,0.00,Wunderground v.1.15,2013-01-08 16:18:00,
2013-01-08 11:20:00,34.8,28.3,30.42,WNW,282,1.0,2.0,77,0.00,,,0.00,Wunderground v.1.15,2013-01-08 16:20:00,
2013-01-08 11:25:00,35.1,28.9,30.42,West,281,1.0,2.0,78,0.00,,,0.00,Wunderground v.1.15,2013-01-08 16:25:00,
2013-01-08 11:26:00,35.2,28.7,30.42,West,267,1.0,3.0,77,0.00,,,0.00,Wunderground v.1.15,2013-01-08 16:26:00,
2013-01-08 11:27:00,35.3,28.8,30.42,West,280,1.0,3.0,77,0.00,,,0.00,Wunderground v.1.15,2013-01-08 16:27:00,
2013-01-08 11:30:00,35.7,28.9,30.42,NW,308,2.0,4.0,76,0.00,,,0.00,Wunderground v.1.15,2013-01-08 16:30:00,
2013-01-08 11:31:00,35.8,29.3,30.41,West,281,2.0,5.0,77,0.00,,,0.00,Wunderground v.1.15,2013-01-08 16:31:00,
2013-01-08 11:34:00,36.2,29.4,30.41,West,269,2.0,5.0,76,0.00,,,0.00,Wunderground v.1.15,2013-01-08 16:34:00,
2013-01-08 11:36:00,36.4,29.6,30.41,WNW,289,2.0,5.0,76,0.00,,,0.00,Wunderground v.1.15,2013-01-08 16:36:00,
2013-01-08 11:37:00,36.5,29.7,30.41,WNW,291,2.0,5.0,76,0.00,,,0.00,Wunderground v.1.15,2013-01-08 16:37:00,
2013-01-08 11:38:00,36.6,29.4,30.41,WNW,290,2.0,5.0,75,0.00,,,0.00,Wunderground v.1.15,2013-01-08 16:38:00,
2013-01-08 11:39:00,36.7,29.5,30.41,WNW,283,1.0,5.0,75,0.00,,,0.00,Wunderground v.1.15,2013-01-08 16:39:00,
2013-01-08 11:44:00,37.2,29.7,30.41,WNW,302,1.0,2.0,74,0.00,,,0.00,Wunderground v.1.15,2013-01-08 16:44:00,
2013-01-08 11:45:00,37.3,29.8,30.41,NW,307,1.0,4.0,74,0.00,,,0.00,Wunderground v.1.15,2013-01-08 16:45:00,
2013-01-08 11:47:00,37.5,29.6,30.41,WNW,290,2.0,4.0,73,0.00,,,0.00,Wunderground v.1.15,2013-01-08 16:47:00,
2013-01-08 11:48:00,37.6,30.1,30.41,WNW,290,2.0,4.0,74,0.00,,,0.00,Wunderground v.1.15,2013-01-08 16:48:00,
2013-01-08 11:52:00,37.7,29.8,30.41,WNW,283,2.0,2.0,73,0.00,,,0.00,Wunderground v.1.15,2013-01-08 16:52:00,
2013-01-08 11:54:00,37.8,29.9,30.41,WNW,288,1.0,2.0,73,0.00,,,0.00,Wunderground v.1.15,2013-01-08 16:54:00,
2013-01-08 11:56:00,37.8,29.9,30.41,WNW,288,1.0,2.0,73,0.00,,,0.00,Wunderground v.1.15,2013-01-08 16:56:00,
2013-01-08 11:58:00,37.9,30.0,30.41,WNW,298,0.0,2.0,73,0.00,,,0.00,Wunderground v.1.15,2013-01-08 16:58:00,
2013-01-08 12:00:00,37.9,30.4,30.41,WNW,294,0.0,0.0,74,0.00,,,0.00,Wunderground v.1.15,2013-01-08 17:00:00,
2013-01-08 12:03:00,38.1,30.2,30.41,WNW,299,0.0,6.0,73,0.00,,,0.00,Wunderground v.1.15,2013-01-08 17:03:00,
2013-01-08 12:05:00,38.2,30.0,30.41,WNW,287,0.0,6.0,72,0.00,,,0.00,Wunderground v.1.15,2013-01-08 17:05:00,
2013-01-08 12:07:00,38.3,30.4,30.41,West,279,1.0,6.0,73,0.00,,,0.00,Wunderground v.1.15,2013-01-08 17:07:00,
2013-01-08 12:10:00,38.2,30.0,30.41,West,267,1.0,2.0,72,0.00,,,0.00,Wunderground v.1.15,2013-01-08 17:10:00,
2013-01-08 12:12:00,38.2,30.0,30.41,WNW,284,1.0,2.0,72,0.00,,,0.00,Wunderground v.1.15,2013-01-08 17:12:00,
2013-01-08 12:13:00,38.2,30.0,30.41,WNW,294,1.0,2.0,72,0.00,,,0.00,Wunderground v.1.15,2013-01-08 17:13:00,
2013-01-08 12:15:00,38.3,30.1,30.41,WNW,293,1.0,2.0,72,0.00,,,0.00,Wunderground v.1.15,2013-01-08 17:15:00,
2013-01-08 12:17:00,38.3,30.1,30.41,WNW,294,1.0,2.0,72,0.00,,,0.00,Wunderground v.1.15,2013-01-08 17:17:00,
2013-01-08 12:18:00,38.4,30.2,30.41,WNW,291,1.0,2.0,72,0.00,,,0.00,Wunderground v.1.15,2013-01-08 17:18:00,
2013-01-08 12:20:00,38.5,30.3,30.41,West,273,1.0,2.0,72,0.00,,,0.00,Wunderground v.1.15,2013-01-08 17:20:00,
2013-01-08 12:24:00,38.6,30.4,30.41,WNW,300,0.0,2.0,72,0.00,,,0.00,Wunderground v.1.15,2013-01-08 17:24:00,
2013-01-08 12:26:00,38.5,30.3,30.41,WNW,289,1.0,3.0,72,0.00,,,0.00,Wunderground v.1.15,2013-01-08 17:26:00,
2013-01-08 12:28:00,38.4,30.2,30.41,West,269,1.0,3.0,72,0.00,,,0.00,Wunderground v.1.15,2013-01-08 17:28:00,
2013-01-08 12:30:00,38.4,30.5,30.41,WNW,294,1.0,1.0,73,0.00,,,0.00,Wunderground v.1.15,2013-01-08 17:30:00,
2013-01-08 12:31:00,38.4,30.5,30.41,WNW,284,1.0,5.0,73,0.00,,,0.00,Wunderground v.1.15,2013-01-08 17:31:00,
2013-01-08 12:34:00,38.3,30.1,30.41,West,261,1.0,5.0,72,0.00,,,0.00,Wunderground v.1.15,2013-01-08 17:34:00,
2013-01-08 12:36:00,38.2,30.0,30.41,West,264,0.0,5.0,72,0.00,,,0.00,Wunderground v.1.15,2013-01-08 17:36:00,
2013-01-08 12:39:00,38.2,30.0,30.41,West,266,0.0,5.0,72,0.00,,,0.00,Wunderground v.1.15,2013-01-08 17:39:00,
2013-01-08 12:43:00,38.3,30.4,30.41,West,267,0.0,0.0,73,0.00,,,0.00,Wunderground v.1.15,2013-01-08 17:43:00,
2013-01-08 12:44:00,38.3,30.4,30.41,West,267,0.0,0.0,73,0.00,,,0.00,Wunderground v.1.15,2013-01-08 17:44:00,
2013-01-08 12:45:00,38.4,30.5,30.41,West,274,0.0,0.0,73,0.00,,,0.00,Wunderground v.1.15,2013-01-08 17:45:00,
2013-01-08 12:50:00,38.5,30.3,30.41,NW,304,0.0,0.0,72,0.00,,,0.01,Wunderground v.1.15,2013-01-08 17:50:00,
2013-01-08 12:51:00,38.6,30.4,30.41,WNW,298,0.0,0.0,72,0.00,,,0.01,Wunderground v.1.15,2013-01-08 17:51:00,
2013-01-08 12:52:00,38.6,30.4,30.41,WNW,298,0.0,0.0,72,0.22,,,0.02,Wunderground v.1.15,2013-01-08 17:52:00,
2013-01-08 12:53:00,38.7,30.8,30.41,WNW,298,0.0,0.0,73,2.11,,,0.06,Wunderground v.1.15,2013-01-08 17:53:00,
2013-01-08 12:55:00,38.7,30.8,30.41,WNW,298,0.0,0.0,73,0.32,,,0.06,Wunderground v.1.15,2013-01-08 17:55:00,
2013-01-08 12:57:00,38.8,30.9,30.41,WNW,300,0.0,0.0,73,0.15,,,0.06,Wunderground v.1.15,2013-01-08 17:57:00,
2013-01-08 13:00:00,38.8,30.2,30.40,NW,309,0.0,0.0,71,0.09,,,0.06,Wunderground v.1.15,2013-01-08 18:00:00,
2013-01-08 13:01:00,38.9,30.6,30.40,NW,309,0.0,4.0,72,0.08,,,0.06,Wunderground v.1.15,2013-01-08 18:01:00,
2013-01-08 13:04:00,39.0,30.4,30.40,NW,307,0.0,4.0,71,0.06,,,0.06,Wunderground v.1.15,2013-01-08 18:04:00,
2013-01-08 13:06:00,39.1,30.1,30.40,NW,308,0.0,4.0,70,0.05,,,0.06,Wunderground v.1.15,2013-01-08 18:06:00,
2013-01-08 13:09:00,39.3,30.0,30.40,WNW,302,0.0,4.0,69,0.04,,,0.06,Wunderground v.1.15,2013-01-08 18:09:00,
2013-01-08 13:11:00,39.7,30.7,30.40,WNW,295,0.0,0.0,70,0.00,,,0.06,Wunderground v.1.15,2013-01-08 18:11:00,
2013-01-08 13:13:00,40.1,31.1,30.40,WNW,282,0.0,2.0,70,0.00,,,0.06,Wunderground v.1.15,2013-01-08 18:13:00,
2013-01-08 13:16:00,40.4,31.0,30.40,WNW,282,0.0,2.0,69,0.00,,,0.06,Wunderground v.1.15,2013-01-08 18:16:00,
2013-01-08 13:19:00,40.5,31.1,30.40,NW,306,0.0,4.0,69,0.00,,,0.07,Wunderground v.1.15,2013-01-08 18:19:00,
2013-01-08 13:21:00,40.5,31.1,30.40,NW,304,1.0,1.0,69,0.00,,,0.07,Wunderground v.1.15,2013-01-08 18:21:00,
2013-01-08 13:24:00,40.5,31.1,30.40,WNW,286,1.0,2.0,69,0.00,,,0.07,Wunderground v.1.15,2013-01-08 18:24:00,
2013-01-08 13:26:00,40.4,31.0,30.40,WNW,288,1.0,2.0,69,0.00,,,0.07,Wunderground v.1.15,2013-01-08 18:26:00,
2013-01-08 13:27:00,40.4,31.0,30.40,WNW,288,1.0,2.0,69,0.00,,,0.07,Wunderground v.1.15,2013-01-08 18:27:00,
2013-01-08 13:31:00,40.4,31.4,30.40,WNW,286,0.0,4.0,70,0.05,,,0.08,Wunderground v.1.15,2013-01-08 18:31:00,
2013-01-08 13:32:00,40.4,31.0,30.40,WNW,286,0.0,4.0,69,0.05,,,0.08,Wunderground v.1.15,2013-01-08 18:32:00,
2013-01-08 13:33:00,40.4,31.0,30.40,WNW,286,0.0,4.0,69,0.05,,,0.08,Wunderground v.1.15,2013-01-08 18:33:00,
2013-01-08 13:34:00,40.5,31.1,30.40,WNW,286,0.0,4.0,69,0.05,,,0.08,Wunderground v.1.15,2013-01-08 18:34:00,
2013-01-08 13:38:00,40.5,31.1,30.40,WNW,296,0.0,4.0,69,0.05,,,0.08,Wunderground v.1.15,2013-01-08 18:38:00,
2013-01-08 13:40:00,40.5,31.5,30.40,WNW,295,0.0,0.0,70,0.05,,,0.08,Wunderground v.1.15,2013-01-08 18:40:00,
2013-01-08 13:42:00,40.7,31.7,30.40,WNW,295,0.0,0.0,70,0.04,,,0.08,Wunderground v.1.15,2013-01-08 18:42:00,
2013-01-08 13:43:00,40.9,31.9,30.40,WNW,291,0.0,0.0,70,0.04,,,0.08,Wunderground v.1.15,2013-01-08 18:43:00,
2013-01-08 13:46:00,41.2,31.4,30.40,West,265,0.0,0.0,68,0.00,,,0.08,Wunderground v.1.15,2013-01-08 18:46:00,
2013-01-08 13:47:00,41.3,31.5,30.40,West,265,0.0,0.0,68,0.00,,,0.08,Wunderground v.1.15,2013-01-08 18:47:00,
2013-01-08 13:49:00,41.5,31.7,30.40,West,265,0.0,0.0,68,0.00,,,0.09,Wunderground v.1.15,2013-01-08 18:49:00,
2013-01-08 13:52:00,41.8,31.3,30.40,West,265,0.0,0.0,66,0.00,,,0.09,Wunderground v.1.15,2013-01-08 18:52:00,
2013-01-08 13:55:00,41.9,31.4,30.40,West,265,0.0,0.0,66,0.00,,,0.09,Wunderground v.1.15,2013-01-08 18:55:00,
2013-01-08 13:59:00,42.0,31.5,30.40,West,265,0.0,0.0,66,0.06,,,0.10,Wunderground v.1.15,2013-01-08 18:59:00,
2013-01-08 14:00:00,42.0,31.8,30.40,West,265,0.0,0.0,67,0.06,,,0.10,Wunderground v.1.15,2013-01-08 19:00:00,
2013-01-08 14:04:00,42.1,31.6,30.40,West,265,0.0,4.0,66,0.06,,,0.10,Wunderground v.1.15,2013-01-08 19:04:00,
2013-01-08 14:06:00,42.3,31.7,30.40,WNW,284,1.0,4.0,66,0.06,,,0.10,Wunderground v.1.15,2013-01-08 19:06:00,
2013-01-08 14:12:00,42.4,31.5,30.40,WNW,283,1.0,2.0,65,0.05,,,0.11,Wunderground v.1.15,2013-01-08 19:12:00,
2013-01-08 14:13:00,42.4,31.5,30.40,West,281,1.0,2.0,65,0.05,,,0.11,Wunderground v.1.15,2013-01-08 19:13:00,
2013-01-08 14:14:00,42.4,31.5,30.40,West,281,1.0,2.0,65,0.05,,,0.11,Wunderground v.1.15,2013-01-08 19:14:00,
2013-01-08 14:16:00,42.3,31.4,30.40,West,281,1.0,2.0,65,0.05,,,0.11,Wunderground v.1.15,2013-01-08 19:16:00,
2013-01-08 14:19:00,42.4,31.5,30.41,WNW,288,1.0,2.0,65,0.05,,,0.11,Wunderground v.1.15,2013-01-08 19:19:00,
2013-01-08 14:21:00,42.4,31.5,30.41,WNW,287,0.0,0.0,65,0.06,,,0.11,Wunderground v.1.15,2013-01-08 19:21:00,
2013-01-08 14:24:00,42.5,31.6,30.41,WNW,288,0.0,0.0,65,0.06,,,0.12,Wunderground v.1.15,2013-01-08 19:24:00,
2013-01-08 14:25:00,42.5,31.9,30.41,WNW,287,0.0,0.0,66,0.06,,,0.12,Wunderground v.1.15,2013-01-08 19:25:00,
2013-01-08 14:28:00,42.6,32.0,30.41,WNW,287,0.0,0.0,66,0.06,,,0.12,Wunderground v.1.15,2013-01-08 19:28:00,
2013-01-08 14:30:00,42.8,31.8,30.41,WNW,286,0.0,0.0,65,0.06,,,0.12,Wunderground v.1.15,2013-01-08 19:30:00,
2013-01-08 14:32:00,43.0,32.0,30.41,WNW,286,0.0,3.0,65,0.05,,,0.12,Wunderground v.1.15,2013-01-08 19:32:00,
2013-01-08 14:35:00,43.1,32.1,30.41,WNW,286,0.0,3.0,65,0.04,,,0.12,Wunderground v.1.15,2013-01-08 19:35:00,
2013-01-08 14:36:00,43.1,31.7,30.41,WNW,286,0.0,3.0,64,0.04,,,0.12,Wunderground v.1.15,2013-01-08 19:36:00,
2013-01-08 14:39:00,43.1,32.1,30.41,NW,306,0.0,3.0,65,0.04,,,0.13,Wunderground v.1.15,2013-01-08 19:39:00,
2013-01-08 14:41:00,43.0,31.6,30.41,NNW,343,0.0,3.0,64,0.04,,,0.13,Wunderground v.1.15,2013-01-08 19:41:00,
2013-01-08 14:42:00,42.9,31.6,30.41,NNW,343,1.0,3.0,64,0.04,,,0.13,Wunderground v.1.15,2013-01-08 19:42:00,
2013-01-08 14:44:00,43.0,31.6,30.41,NNW,343,1.0,3.0,64,0.04,,,0.13,Wunderground v.1.15,2013-01-08 19:44:00,
2013-01-08 14:47:00,43.1,32.1,30.41,NNW,340,1.0,3.0,65,0.04,,,0.13,Wunderground v.1.15,2013-01-08 19:47:00,
2013-01-08 14:49:00,43.2,32.2,30.41,NNW,340,0.0,3.0,65,0.04,,,0.13,Wunderground v.1.15,2013-01-08 19:49:00,
2013-01-08 14:54:00,43.4,32.4,30.41,NW,304,0.0,0.0,65,0.04,,,0.14,Wunderground v.1.15,2013-01-08 19:54:00,
2013-01-08 14:56:00,43.5,32.1,30.41,WNW,302,0.0,0.0,64,0.04,,,0.14,Wunderground v.1.15,2013-01-08 19:56:00,
2013-01-08 14:58:00,43.6,32.2,30.41,WNW,302,0.0,0.0,64,0.04,,,0.14,Wunderground v.1.15,2013-01-08 19:58:00,
2013-01-08 15:01:00,43.7,32.3,30.41,WNW,302,0.0,4.0,64,0.04,,,0.14,Wunderground v.1.15,2013-01-08 20:01:00,
2013-01-08 15:02:00,43.6,32.2,30.41,WNW,302,0.0,4.0,64,0.04,,,0.14,Wunderground v.1.15,2013-01-08 20:02:00,
2013-01-08 15:08:00,43.5,31.7,30.42,NW,321,0.0,4.0,63,0.00,,,0.14,Wunderground v.1.15,2013-01-08 20:08:00,
2013-01-08 15:09:00,43.5,31.7,30.42,NW,311,0.0,4.0,63,0.00,,,0.14,Wunderground v.1.15,2013-01-08 20:09:00,
2013-01-08 15:10:00,43.4,32.0,30.42,NW,311,0.0,0.0,64,0.00,,,0.15,Wunderground v.1.15,2013-01-08 20:10:00,
2013-01-08 15:13:00,43.4,32.4,30.42,NW,312,1.0,2.0,65,0.00,,,0.15,Wunderground v.1.15,2013-01-08 20:13:00,
2013-01-08 15:15:00,43.4,32.0,30.41,NW,311,0.0,2.0,64,0.00,,,0.15,Wunderground v.1.15,2013-01-08 20:15:00,
2013-01-08 15:17:00,43.4,32.0,30.42,NW,311,0.0,2.0,64,0.00,,,0.15,Wunderground v.1.15,2013-01-08 20:17:00,
2013-01-08 15:20:00,43.4,32.0,30.42,WNW,301,0.0,0.0,64,0.00,,,0.15,Wunderground v.1.15,2013-01-08 20:20:00,
2013-01-08 15:22:00,43.6,32.2,30.42,WNW,301,0.0,0.0,64,0.00,,,0.15,Wunderground v.1.15,2013-01-08 20:22:00,
2013-01-08 15:23:00,43.7,32.3,30.42,WNW,300,0.0,0.0,64,0.00,,,0.15,Wunderground v.1.15,2013-01-08 20:23:00,
2013-01-08 15:24:00,43.8,32.4,30.42,WNW,300,0.0,0.0,64,0.00,,,0.15,Wunderground v.1.15,2013-01-08 20:24:00,
2013-01-08 15:26:00,43.9,32.5,30.42,West,280,0.0,0.0,64,0.00,,,0.15,Wunderground v.1.15,2013-01-08 20:26:00,
2013-01-08 15:27:00,44.0,32.2,30.42,West,279,0.0,0.0,63,0.00,,,0.15,Wunderground v.1.15,2013-01-08 20:27:00,
2013-01-08 15:31:00,44.0,32.2,30.42,WNW,286,0.0,5.0,63,0.00,,,0.16,Wunderground v.1.15,2013-01-08 20:31:00,
2013-01-08 15:32:00,44.0,32.2,30.42,WNW,286,0.0,5.0,63,0.00,,,0.16,Wunderground v.1.15,2013-01-08 20:32:00,
2013-01-08 15:34:00,44.0,32.6,30.42,WNW,286,0.0,5.0,64,0.00,,,0.16,Wunderground v.1.15,2013-01-08 20:34:00,
2013-01-08 15:36:00,44.0,32.6,30.42,WNW,286,0.0,5.0,64,0.00,,,0.16,Wunderground v.1.15,2013-01-08 20:36:00,
2013-01-08 15:38:00,44.1,32.7,30.42,WNW,286,0.0,5.0,64,0.00,,,0.16,Wunderground v.1.15,2013-01-08 20:38:00,
2013-01-08 15:40:00,44.1,32.7,30.42,WNW,286,0.0,0.0,64,0.00,,,0.16,Wunderground v.1.15,2013-01-08 20:40:00,
2013-01-08 15:44:00,44.0,32.6,30.42,WNW,286,0.0,0.0,64,0.00,,,0.16,Wunderground v.1.15,2013-01-08 20:44:00,
2013-01-08 15:46:00,44.0,32.6,30.42,WNW,288,0.0,0.0,64,0.00,,,0.16,Wunderground v.1.15,2013-01-08 20:46:00,
2013-01-08 15:49:00,43.9,32.5,30.42,WNW,288,0.0,0.0,64,0.00,,,0.16,Wunderground v.1.15,2013-01-08 20:49:00,
2013-01-08 15:50:00,43.9,32.5,30.42,WNW,288,0.0,0.0,64,0.00,,,0.16,Wunderground v.1.15,2013-01-08 20:50:00,
2013-01-08 15:53:00,43.8,32.4,30.42,WNW,288,0.0,0.0,64,0.00,,,0.17,Wunderground v.1.15,2013-01-08 20:53:00,
2013-01-08 15:54:00,43.7,32.3,30.42,WNW,288,0.0,0.0,64,0.00,,,0.17,Wunderground v.1.15,2013-01-08 20:54:00,
2013-01-08 15:56:00,43.6,32.2,30.41,WNW,288,0.0,0.0,64,0.00,,,0.17,Wunderground v.1.15,2013-01-08 20:56:00,
2013-01-08 15:57:00,43.6,32.2,30.41,WNW,288,0.0,0.0,64,0.00,,,0.17,Wunderground v.1.15,2013-01-08 20:57:00,
2013-01-08 16:01:00,43.6,32.2,30.42,WNW,288,0.0,3.0,64,0.00,,,0.17,Wunderground v.1.15,2013-01-08 21:01:00,
2013-01-08 16:02:00,43.6,32.2,30.42,WNW,288,0.0,3.0,64,0.00,,,0.17,Wunderground v.1.15,2013-01-08 21:02:00,
2013-01-08 16:05:00,43.5,32.1,30.42,WNW,288,0.0,3.0,64,0.00,,,0.17,Wunderground v.1.15,2013-01-08 21:05:00,
2013-01-08 16:06:00,43.4,32.0,30.42,WNW,288,0.0,3.0,64,0.00,,,0.17,Wunderground v.1.15,2013-01-08 21:06:00,
2013-01-08 16:08:00,43.4,31.6,30.42,WNW,288,0.0,3.0,63,0.00,,,0.17,Wunderground v.1.15,2013-01-08 21:08:00,
2013-01-08 16:11:00,43.4,31.6,30.42,WNW,288,0.0,0.0,63,0.00,,,0.17,Wunderground v.1.15,2013-01-08 21:11:00,
2013-01-08 16:12:00,43.3,31.5,30.42,WNW,288,0.0,0.0,63,0.00,,,0.17,Wunderground v.1.15,2013-01-08 21:12:00,
2013-01-08 16:13:00,43.3,31.5,30.42,WNW,288,0.0,0.0,63,0.00,,,0.17,Wunderground v.1.15,2013-01-08 21:13:00,
2013-01-08 16:16:00,43.2,31.8,30.42,WNW,288,0.0,0.0,64,0.00,,,0.17,Wunderground v.1.15,2013-01-08 21:16:00,
2013-01-08 16:18:00,43.0,31.6,30.42,WNW,288,0.0,0.0,64,0.00,,,0.17,Wunderground v.1.15,2013-01-08 21:18:00,
2013-01-08 16:20:00,42.8,31.8,30.42,WNW,288,0.0,0.0,65,0.00,,,0.17,Wunderground v.1.15,2013-01-08 21:20:00,
2013-01-08 16:22:00,42.5,31.6,30.42,WNW,288,0.0,0.0,65,0.00,,,0.17,Wunderground v.1.15,2013-01-08 21:22:00,
2013-01-08 16:23:00,42.5,31.9,30.42,WNW,288,0.0,0.0,66,0.00,,,0.17,Wunderground v.1.15,2013-01-08 21:23:00,
2013-01-08 16:27:00,42.3,31.7,30.42,WNW,288,0.0,0.0,66,0.00,,,0.17,Wunderground v.1.15,2013-01-08 21:27:00,
2013-01-08 16:28:00,42.1,31.9,30.42,WNW,288,0.0,0.0,67,0.00,,,0.17,Wunderground v.1.15,2013-01-08 21:28:00,
2013-01-08 16:31:00,41.7,31.5,30.42,WNW,288,0.0,1.0,67,0.00,,,0.17,Wunderground v.1.15,2013-01-08 21:31:00,
2013-01-08 16:34:00,41.2,31.4,30.42,WNW,288,0.0,1.0,68,0.00,,,0.17,Wunderground v.1.15,2013-01-08 21:34:00,
2013-01-08 16:39:00,40.7,31.3,30.42,WNW,288,0.0,1.0,69,0.00,,,0.18,Wunderground v.1.15,2013-01-08 21:39:00,
2013-01-08 16:40:00,40.6,31.2,30.42,WNW,288,0.0,0.0,69,0.00,,,0.18,Wunderground v.1.15,2013-01-08 21:40:00,
2013-01-08 16:42:00,40.5,31.5,30.42,WNW,288,0.0,0.0,70,0.00,,,0.18,Wunderground v.1.15,2013-01-08 21:42:00,
2013-01-08 16:44:00,40.2,31.2,30.42,WNW,288,0.0,0.0,70,0.00,,,0.18,Wunderground v.1.15,2013-01-08 21:44:00,
2013-01-08 16:47:00,40.0,31.4,30.42,WNW,288,0.0,0.0,71,0.00,,,0.18,Wunderground v.1.15,2013-01-08 21:47:00,
2013-01-08 16:49:00,39.7,31.4,30.42,WNW,288,0.0,0.0,72,0.00,,,0.18,Wunderground v.1.15,2013-01-08 21:49:00,
2013-01-08 16:51:00,39.3,31.0,30.42,WNW,288,0.0,0.0,72,0.00,,,0.18,Wunderground v.1.15,2013-01-08 21:51:00,
2013-01-08 16:54:00,38.7,30.8,30.42,WNW,288,0.0,1.0,73,0.00,,,0.18,Wunderground v.1.15,2013-01-08 21:54:00,
2013-01-08 16:55:00,38.2,30.6,30.42,WNW,288,0.0,2.0,74,0.00,,,0.18,Wunderground v.1.15,2013-01-08 21:55:00,
2013-01-08 16:59:00,37.8,30.6,30.42,WNW,288,1.0,2.0,75,0.00,,,0.18,Wunderground v.1.15,2013-01-08 21:59:00,
2013-01-08 17:00:00,37.8,30.9,30.42,WNW,290,1.0,1.0,76,0.00,,,0.18,Wunderground v.1.15,2013-01-08 22:00:00,
2013-01-08 17:02:00,37.9,31.0,30.42,North,11,1.0,3.0,76,0.00,,,0.18,Wunderground v.1.15,2013-01-08 22:02:00,
2013-01-08 17:04:00,37.8,30.9,30.42,NNE,12,1.0,3.0,76,0.00,,,0.18,Wunderground v.1.15,2013-01-08 22:04:00,
2013-01-08 17:10:00,37.3,30.7,30.42,NNE,14,1.0,1.0,77,0.00,,,0.18,Wunderground v.1.15,2013-01-08 22:10:00,
2013-01-08 17:12:00,37.3,31.1,30.43,NNE,15,1.0,1.0,78,0.00,,,0.18,Wunderground v.1.15,2013-01-08 22:12:00,
2013-01-08 17:14:00,37.0,30.8,30.43,NNE,15,0.0,1.0,78,0.00,,,0.18,Wunderground v.1.15,2013-01-08 22:14:00,
2013-01-08 17:17:00,36.7,30.5,30.42,NNE,14,0.0,2.0,78,0.00,,,0.18,Wunderground v.1.15,2013-01-08 22:17:00,
2013-01-08 17:20:00,36.6,30.7,30.42,NNE,15,1.0,1.0,79,0.00,,,0.18,Wunderground v.1.15,2013-01-08 22:20:00,
2013-01-08 17:24:00,36.8,30.9,30.42,NNE,15,1.0,1.0,79,0.00,,,0.18,Wunderground v.1.15,2013-01-08 22:24:00,
2013-01-08 17:27:00,37.1,30.9,30.42,NNE,15,1.0,1.0,78,0.00,,,0.18,Wunderground v.1.15,2013-01-08 22:27:00,
2013-01-08 17:28:00,37.2,31.0,30.42,NNE,15,1.0,1.0,78,0.00,,,0.18,Wunderground v.1.15,2013-01-08 22:28:00,
2013-01-08 17:29:00,37.2,30.7,30.42,NNE,14,0.0,1.0,77,0.00,,,0.18,Wunderground v.1.15,2013-01-08 22:29:00,
2013-01-08 17:31:00,37.2,30.7,30.42,NNE,14,0.0,2.0,77,0.00,,,0.18,Wunderground v.1.15,2013-01-08 22:31:00,
2013-01-08 17:33:00,37.3,30.4,30.42,NNE,15,0.0,2.0,76,0.00,,,0.18,Wunderground v.1.15,2013-01-08 22:33:00,
2013-01-08 17:35:00,37.4,30.5,30.42,NNE,14,0.0,2.0,76,0.00,,,0.18,Wunderground v.1.15,2013-01-08 22:35:00,
2013-01-08 17:37:00,37.5,30.3,30.42,NNE,15,0.0,2.0,75,0.00,,,0.18,Wunderground v.1.15,2013-01-08 22:37:00,
2013-01-08 17:38:00,37.5,30.3,30.43,NNE,14,0.0,2.0,75,0.00,,,0.18,Wunderground v.1.15,2013-01-08 22:38:00,
2013-01-08 17:43:00,37.7,30.2,30.42,NNE,14,0.0,0.0,74,0.00,,,0.18,Wunderground v.1.15,2013-01-08 22:43:00,
2013-01-08 17:44:00,37.6,30.1,30.42,NNE,15,0.0,0.0,74,0.00,,,0.18,Wunderground v.1.15,2013-01-08 22:44:00,
2013-01-08 17:48:00,36.5,29.7,30.42,NNE,15,1.0,2.0,76,0.00,,,0.18,Wunderground v.1.15,2013-01-08 22:48:00,
2013-01-08 17:49:00,36.4,29.6,30.42,NNE,15,1.0,2.0,76,0.00,,,0.18,Wunderground v.1.15,2013-01-08 22:49:00,
2013-01-08 17:51:00,36.2,29.4,30.42,NNE,15,1.0,3.0,76,0.00,,,0.18,Wunderground v.1.15,2013-01-08 22:51:00,
2013-01-08 17:55:00,36.2,29.4,30.42,NNE,14,1.0,3.0,76,0.00,,,0.18,Wunderground v.1.15,2013-01-08 22:55:00,
2013-01-08 17:56:00,36.2,29.4,30.42,NNE,15,1.0,3.0,76,0.00,,,0.18,Wunderground v.1.15,2013-01-08 22:56:00,
2013-01-08 17:57:00,36.2,29.7,30.42,NNE,15,1.0,3.0,77,0.00,,,0.18,Wunderground v.1.15,2013-01-08 22:57:00,
2013-01-08 18:02:00,36.5,29.7,30.43,NNE,15,0.0,3.0,76,0.00,,,0.18,Wunderground v.1.15,2013-01-08 23:02:00,
2013-01-08 18:03:00,36.4,29.6,30.43,NNE,14,0.0,3.0,76,0.00,,,0.18,Wunderground v.1.15,2013-01-08 23:03:00,
2013-01-08 18:04:00,36.3,29.5,30.43,NNE,15,0.0,3.0,76,0.00,,,0.18,Wunderground v.1.15,2013-01-08 23:04:00,
2013-01-08 18:09:00,36.3,29.8,30.43,NNE,15,1.0,3.0,77,0.00,,,0.18,Wunderground v.1.15,2013-01-08 23:09:00,
2013-01-08 18:10:00,36.4,29.9,30.43,NNE,15,1.0,1.0,77,0.00,,,0.18,Wunderground v.1.15,2013-01-08 23:10:00,
2013-01-08 18:12:00,36.5,29.7,30.43,NNE,15,1.0,1.0,76,0.00,,,0.18,Wunderground v.1.15,2013-01-08 23:12:00,
2013-01-08 18:16:00,36.5,30.0,30.43,NNE,15,0.0,1.0,77,0.00,,,0.18,Wunderground v.1.15,2013-01-08 23:16:00,
2013-01-08 18:17:00,36.5,30.0,30.43,NNE,15,0.0,1.0,77,0.00,,,0.18,Wunderground v.1.15,2013-01-08 23:17:00,
2013-01-08 18:20:00,36.5,30.3,30.42,NNE,15,0.0,0.0,78,0.00,,,0.18,Wunderground v.1.15,2013-01-08 23:20:00,
2013-01-08 18:24:00,36.7,32.0,30.42,NNE,15,0.0,0.0,83,0.00,,,0.18,Wunderground v.1.15,2013-01-08 23:24:00,
2013-01-08 18:25:00,36.8,30.6,30.43,NNE,14,0.0,0.0,78,0.00,,,0.18,Wunderground v.1.15,2013-01-08 23:25:00,
2013-01-08 18:26:00,37.0,30.8,30.43,ENE,75,0.0,0.0,78,0.00,,,0.18,Wunderground v.1.15,2013-01-08 23:26:00,
2013-01-08 18:30:00,37.1,30.6,30.43,East,79,0.0,0.0,77,0.00,,,0.18,Wunderground v.1.15,2013-01-08 23:30:00,
2013-01-08 18:32:00,37.4,30.8,30.43,East,79,0.0,3.0,77,0.00,,,0.18,Wunderground v.1.15,2013-01-08 23:32:00,
2013-01-08 18:33:00,37.5,30.6,30.43,East,79,1.0,3.0,76,0.00,,,0.18,Wunderground v.1.15,2013-01-08 23:33:00,
2013-01-08 18:36:00,37.5,30.6,30.43,East,80,1.0,3.0,76,0.00,,,0.18,Wunderground v.1.15,2013-01-08 23:36:00,
2013-01-08 18:39:00,37.5,30.6,30.43,ESE,103,0.0,3.0,76,0.00,,,0.18,Wunderground v.1.15,2013-01-08 23:39:00,
2013-01-08 18:40:00,37.5,30.6,30.43,ESE,120,0.0,4.0,76,0.00,,,0.18,Wunderground v.1.15,2013-01-08 23:40:00,
2013-01-08 18:42:00,37.8,30.6,30.43,ESE,111,1.0,4.0,75,0.00,,,0.18,Wunderground v.1.15,2013-01-08 23:42:00,
2013-01-08 18:43:00,38.0,30.8,30.42,ESE,110,1.0,4.0,75,0.00,,,0.18,Wunderground v.1.15,2013-01-08 23:43:00,
2013-01-08 18:45:00,38.0,30.8,30.42,ESE,117,1.0,4.0,75,0.00,,,0.18,Wunderground v.1.15,2013-01-08 23:45:00,
2013-01-08 18:48:00,38.5,30.9,30.42,East,90,1.0,4.0,74,0.00,,,0.18,Wunderground v.1.15,2013-01-08 23:48:00,
2013-01-08 18:49:00,38.5,30.9,30.42,East,90,1.0,4.0,74,0.00,,,0.18,Wunderground v.1.15,2013-01-08 23:49:00,
2013-01-08 18:51:00,38.5,30.9,30.42,East,90,1.0,1.0,74,0.00,,,0.18,Wunderground v.1.15,2013-01-08 23:51:00,
2013-01-08 18:53:00,38.3,30.4,30.43,East,90,0.0,1.0,73,0.00,,,0.18,Wunderground v.1.15,2013-01-08 23:53:00,
2013-01-08 18:55:00,38.3,30.7,30.43,East,90,0.0,1.0,74,0.00,,,0.18,Wunderground v.1.15,2013-01-08 23:55:00,
2013-01-08 18:56:00,38.3,30.4,30.43,East,90,0.0,1.0,73,0.00,,,0.18,Wunderground v.1.15,2013-01-08 23:56:00,
2013-01-08 18:59:00,38.2,30.3,30.43,East,90,0.0,1.0,73,0.00,,,0.18,Wunderground v.1.15,2013-01-08 23:59:00,
2013-01-08 19:00:00,38.1,30.2,30.43,East,90,0.0,0.0,73,0.00,,,0.18,Wunderground v.1.15,2013-01-09 00:00:00,
2013-01-08 19:03:00,37.7,30.2,30.43,East,90,0.0,3.0,74,0.00,,,0.18,Wunderground v.1.15,2013-01-09 00:03:00,
2013-01-08 19:04:00,37.6,30.1,30.43,East,90,0.0,3.0,74,0.00,,,0.18,Wunderground v.1.15,2013-01-09 00:04:00,
2013-01-08 19:08:00,37.7,30.2,30.43,East,90,0.0,3.0,74,0.00,,,0.18,Wunderground v.1.15,2013-01-09 00:08:00,
2013-01-08 19:09:00,37.7,30.2,30.43,East,90,0.0,3.0,74,0.00,,,0.18,Wunderground v.1.15,2013-01-09 00:09:00,
2013-01-08 19:12:00,37.9,30.4,30.43,East,90,0.0,0.0,74,0.00,,,0.18,Wunderground v.1.15,2013-01-09 00:12:00,
2013-01-08 19:17:00,38.3,30.4,30.43,East,90,0.0,0.0,73,0.00,,,0.18,Wunderground v.1.15,2013-01-09 00:17:00,
2013-01-08 19:19:00,38.2,30.3,30.43,East,90,0.0,0.0,73,0.00,,,0.18,Wunderground v.1.15,2013-01-09 00:19:00,
2013-01-08 19:20:00,38.0,30.1,30.43,East,90,0.0,0.0,73,0.00,,,0.18,Wunderground v.1.15,2013-01-09 00:20:00,
2013-01-08 19:24:00,37.2,30.0,30.43,East,90,0.0,0.0,75,0.00,,,0.18,Wunderground v.1.15,2013-01-09 00:24:00,
2013-01-08 19:25:00,37.1,29.9,30.43,East,90,0.0,0.0,75,0.00,,,0.18,Wunderground v.1.15,2013-01-09 00:25:00,
2013-01-08 19:27:00,37.1,29.9,30.43,East,90,0.0,0.0,75,0.00,,,0.18,Wunderground v.1.15,2013-01-09 00:27:00,
2013-01-08 19:31:00,37.2,30.0,30.43,East,90,0.0,5.0,75,0.00,,,0.18,Wunderground v.1.15,2013-01-09 00:31:00,
2013-01-08 19:32:00,37.2,30.0,30.43,East,90,0.0,5.0,75,0.00,,,0.18,Wunderground v.1.15,2013-01-09 00:32:00,
2013-01-08 19:35:00,37.3,30.1,30.43,East,90,0.0,5.0,75,0.00,,,0.18,Wunderground v.1.15,2013-01-09 00:35:00,
2013-01-08 19:37:00,37.4,30.2,30.42,East,90,0.0,5.0,75,0.00,,,0.18,Wunderground v.1.15,2013-01-09 00:37:00,
2013-01-08 19:39:00,37.1,29.9,30.42,East,90,0.0,5.0,75,0.00,,,0.18,Wunderground v.1.15,2013-01-09 00:39:00,
2013-01-08 19:40:00,37.1,30.2,30.42,East,90,0.0,2.0,76,0.00,,,0.18,Wunderground v.1.15,2013-01-09 00:40:00,
2013-01-08 19:42:00,37.1,30.2,30.42,East,90,0.0,2.0,76,0.00,,,0.18,Wunderground v.1.15,2013-01-09 00:42:00,
2013-01-08 19:44:00,37.1,30.2,30.42,East,90,0.0,2.0,76,0.00,,,0.18,Wunderground v.1.15,2013-01-09 00:44:00,
2013-01-08 19:45:00,37.1,30.2,30.42,East,90,0.0,2.0,76,0.00,,,0.18,Wunderground v.1.15,2013-01-09 00:45:00,
2013-01-08 19:48:00,37.2,30.0,30.42,East,90,0.0,2.0,75,0.00,,,0.18,Wunderground v.1.15,2013-01-09 00:48:00,
2013-01-08 19:51:00,37.6,30.1,30.42,East,91,0.0,0.0,74,0.00,,,0.18,Wunderground v.1.15,2013-01-09 00:51:00,
2013-01-08 19:52:00,37.8,30.3,30.42,East,91,0.0,0.0,74,0.00,,,0.18,Wunderground v.1.15,2013-01-09 00:52:00,
2013-01-08 19:53:00,37.9,30.0,30.41,ESE,117,0.0,0.0,73,0.00,,,0.18,Wunderground v.1.15,2013-01-09 00:53:00,
2013-01-08 19:55:00,38.0,30.1,30.41,ESE,117,0.0,2.0,73,0.00,,,0.18,Wunderground v.1.15,2013-01-09 00:55:00,
2013-01-08 19:58:00,37.9,30.0,30.41,ESE,111,1.0,2.0,73,0.00,,,0.18,Wunderground v.1.15,2013-01-09 00:58:00,
2013-01-08 20:01:00,37.8,30.3,30.41,ESE,113,1.0,1.0,74,0.00,,,0.18,Wunderground v.1.15,2013-01-09 01:01:00,
2013-01-08 20:03:00,37.6,30.1,30.41,ESE,113,1.0,1.0,74,0.00,,,0.18,Wunderground v.1.15,2013-01-09 01:03:00,
2013-01-08 20:06:00,37.8,30.3,30.41,ESE,113,1.0,1.0,74,0.00,,,0.18,Wunderground v.1.15,2013-01-09 01:06:00,
2013-01-08 20:08:00,37.9,30.4,30.41,ESE,111,0.0,1.0,74,0.00,,,0.18,Wunderground v.1.15,2013-01-09 01:08:00,
2013-01-08 20:10:00,38.1,30.2,30.41,ESE,113,0.0,0.0,73,0.00,,,0.18,Wunderground v.1.15,2013-01-09 01:10:00,
2013-01-08 20:11:00,38.2,30.3,30.41,ESE,113,0.0,0.0,73,0.00,,,0.18,Wunderground v.1.15,2013-01-09 01:11:00,
2013-01-08 20:15:00,38.4,30.5,30.41,ESE,113,0.0,0.0,73,0.00,,,0.18,Wunderground v.1.15,2013-01-09 01:15:00,
2013-01-08 20:16:00,38.3,30.4,30.41,ESE,113,0.0,0.0,73,0.00,,,0.18,Wunderground v.1.15,2013-01-09 01:16:00,
2013-01-08 20:18:00,38.4,30.5,30.41,ESE,113,0.0,0.0,73,0.00,,,0.18,Wunderground v.1.15,2013-01-09 01:18:00,
2013-01-08 20:21:00,38.1,30.2,30.41,ESE,113,0.0,0.0,73,0.00,,,0.18,Wunderground v.1.15,2013-01-09 01:21:00,
2013-01-08 20:22:00,38.0,30.1,30.41,ESE,113,0.0,0.0,73,0.00,,,0.18,Wunderground v.1.15,2013-01-09 01:22:00,
2013-01-08 20:28:00,37.8,30.3,30.41,ESE,113,1.0,2.0,74,0.00,,,0.18,Wunderground v.1.15,2013-01-09 01:28:00,
2013-01-08 20:29:00,37.7,30.2,30.41,ESE,113,1.0,2.0,74,0.00,,,0.18,Wunderground v.1.15,2013-01-09 01:29:00,
2013-01-08 20:31:00,37.7,30.2,30.41,ESE,113,1.0,4.0,74,0.00,,,0.18,Wunderground v.1.15,2013-01-09 01:31:00,
2013-01-08 20:34:00,37.7,30.2,30.41,East,89,1.0,4.0,74,0.00,,,0.18,Wunderground v.1.15,2013-01-09 01:34:00,
2013-01-08 20:39:00,37.8,30.3,30.41,ESE,115,0.0,4.0,74,0.00,,,0.18,Wunderground v.1.15,2013-01-09 01:39:00,
2013-01-08 20:41:00,37.8,30.3,30.41,ESE,114,0.0,0.0,74,0.00,,,0.18,Wunderground v.1.15,2013-01-09 01:41:00,
2013-01-08 20:42:00,37.7,30.2,30.41,ESE,113,0.0,0.0,74,0.00,,,0.18,Wunderground v.1.15,2013-01-09 01:42:00,
2013-01-08 20:45:00,37.6,30.1,30.42,ESE,103,0.0,0.0,74,0.00,,,0.18,Wunderground v.1.15,2013-01-09 01:45:00,
2013-01-08 20:48:00,37.1,29.9,30.42,ESE,103,0.0,0.0,75,0.00,,,0.18,Wunderground v.1.15,2013-01-09 01:48:00,
2013-01-08 20:49:00,37.0,29.8,30.42,ESE,103,0.0,0.0,75,0.00,,,0.18,Wunderground v.1.15,2013-01-09 01:49:00,
2013-01-08 20:50:00,36.9,29.7,30.42,ESE,103,0.0,0.0,75,0.00,,,0.18,Wunderground v.1.15,2013-01-09 01:50:00,
2013-01-08 20:51:00,36.8,29.6,30.42,ESE,103,0.0,0.0,75,0.00,,,0.18,Wunderground v.1.15,2013-01-09 01:51:00,
2013-01-08 20:56:00,36.9,30.0,30.42,ESE,103,0.0,0.0,76,0.00,,,0.18,Wunderground v.1.15,2013-01-09 01:56:00,
2013-01-08 20:57:00,37.1,30.2,30.42,ESE,103,0.0,0.0,76,0.00,,,0.18,Wunderground v.1.15,2013-01-09 01:57:00,
2013-01-08 20:58:00,37.3,30.1,30.42,ESE,103,0.0,0.0,75,0.00,,,0.18,Wunderground v.1.15,2013-01-09 01:58:00,
2013-01-08 21:02:00,37.3,30.1,30.42,ESE,103,0.0,4.0,75,0.00,,,0.18,Wunderground v.1.15,2013-01-09 02:02:00,
2013-01-08 21:03:00,37.2,30.0,30.42,ESE,103,0.0,4.0,75,0.00,,,0.18,Wunderground v.1.15,2013-01-09 02:03:00,
2013-01-08 21:05:00,37.3,30.1,30.42,ESE,103,0.0,4.0,75,0.00,,,0.18,Wunderground v.1.15,2013-01-09 02:05:00,
2013-01-08 21:06:00,37.4,30.2,30.42,ESE,103,0.0,4.0,75,0.00,,,0.18,Wunderground v.1.15,2013-01-09 02:06:00,
2013-01-08 21:09:00,37.6,30.4,30.42,ESE,103,0.0,4.0,75,0.00,,,0.18,Wunderground v.1.15,2013-01-09 02:09:00,
2013-01-08 21:10:00,37.7,30.5,30.42,ESE,103,0.0,0.0,75,0.00,,,0.18,Wunderground v.1.15,2013-01-09 02:10:00,
2013-01-08 21:11:00,37.8,30.6,30.42,ESE,103,0.0,0.0,75,0.00,,,0.18,Wunderground v.1.15,2013-01-09 02:11:00,
2013-01-08 21:15:00,38.2,31.0,30.42,ESE,103,0.0,0.0,75,0.00,,,0.18,Wunderground v.1.15,2013-01-09 02:15:00,
2013-01-08 21:17:00,38.2,31.0,30.43,ESE,103,0.0,0.0,75,0.00,,,0.18,Wunderground v.1.15,2013-01-09 02:17:00,
2013-01-08 21:19:00,38.4,31.2,30.42,ESE,103,0.0,2.0,75,0.00,,,0.18,Wunderground v.1.15,2013-01-09 02:19:00,
2013-01-08 21:21:00,38.3,31.1,30.42,ESE,103,0.0,0.0,75,0.00,,,0.18,Wunderground v.1.15,2013-01-09 02:21:00,
2013-01-08 21:23:00,38.3,31.1,30.43,ESE,103,0.0,0.0,75,0.00,,,0.18,Wunderground v.1.15,2013-01-09 02:23:00,
2013-01-08 21:28:00,38.0,31.1,30.43,ESE,103,0.0,0.0,76,0.00,,,0.18,Wunderground v.1.15,2013-01-09 02:28:00,
2013-01-08 21:29:00,38.0,31.1,30.42,ESE,103,0.0,0.0,76,0.00,,,0.18,Wunderground v.1.15,2013-01-09 02:29:00,
2013-01-08 21:31:00,38.0,31.1,30.42,ESE,103,0.0,4.0,76,0.00,,,0.18,Wunderground v.1.15,2013-01-09 02:31:00,
2013-01-08 21:36:00,37.9,31.0,30.43,ESE,103,0.0,4.0,76,0.00,,,0.18,Wunderground v.1.15,2013-01-09 02:36:00,
2013-01-08 21:38:00,37.9,31.3,30.43,ESE,103,0.0,4.0,77,0.00,,,0.18,Wunderground v.1.15,2013-01-09 02:38:00,
2013-01-08 21:39:00,38.0,31.4,30.43,ESE,103,0.0,4.0,77,0.00,,,0.18,Wunderground v.1.15,2013-01-09 02:39:00,
2013-01-08 21:40:00,38.0,31.4,30.43,ESE,103,0.0,0.0,77,0.00,,,0.18,Wunderground v.1.15,2013-01-09 02:40:00,
2013-01-08 21:42:00,37.9,31.3,30.42,ESE,103,0.0,0.0,77,0.00,,,0.18,Wunderground v.1.15,2013-01-09 02:42:00,
2013-01-08 21:46:00,37.8,31.2,30.42,ESE,103,0.0,0.0,77,0.00,,,0.18,Wunderground v.1.15,2013-01-09 02:46:00,
2013-01-08 21:49:00,37.6,31.4,30.43,ESE,103,0.0,0.0,78,0.00,,,0.18,Wunderground v.1.15,2013-01-09 02:49:00,
2013-01-08 21:50:00,37.6,31.4,30.43,ESE,103,0.0,0.0,78,0.00,,,0.18,Wunderground v.1.15,2013-01-09 02:50:00,
2013-01-08 21:53:00,37.9,31.7,30.43,ESE,103,0.0,0.0,78,0.00,,,0.18,Wunderground v.1.15,2013-01-09 02:53:00,
2013-01-08 21:54:00,37.9,31.3,30.43,ESE,103,0.0,0.0,77,0.00,,,0.18,Wunderground v.1.15,2013-01-09 02:54:00,
2013-01-08 21:55:00,38.0,31.7,30.43,ESE,103,0.0,0.0,78,0.00,,,0.18,Wunderground v.1.15,2013-01-09 02:55:00,
2013-01-08 22:00:00,37.9,31.3,30.42,ESE,103,0.0,0.0,77,0.00,,,0.18,Wunderground v.1.15,2013-01-09 03:00:00,
2013-01-08 22:02:00,37.8,31.2,30.42,ESE,103,0.0,4.0,77,0.00,,,0.18,Wunderground v.1.15,2013-01-09 03:02:00,
2013-01-08 22:03:00,37.8,31.2,30.42,ESE,103,0.0,4.0,77,0.00,,,0.18,Wunderground v.1.15,2013-01-09 03:03:00,
2013-01-08 22:08:00,37.4,31.2,30.42,ESE,103,0.0,4.0,78,0.00,,,0.18,Wunderground v.1.15,2013-01-09 03:08:00,
2013-01-08 22:09:00,37.4,31.2,30.42,ESE,103,0.0,4.0,78,0.00,,,0.18,Wunderground v.1.15,2013-01-09 03:09:00,
2013-01-08 22:10:00,37.4,31.2,30.42,ESE,103,0.0,0.0,78,0.00,,,0.18,Wunderground v.1.15,2013-01-09 03:10:00,
2013-01-08 22:13:00,37.3,31.1,30.42,ESE,103,0.0,1.0,78,0.00,,,0.18,Wunderground v.1.15,2013-01-09 03:13:00,
2013-01-08 22:15:00,37.3,31.4,30.42,ESE,103,0.0,1.0,79,0.00,,,0.18,Wunderground v.1.15,2013-01-09 03:15:00,
2013-01-08 22:16:00,37.3,31.4,30.42,ESE,103,0.0,1.0,79,0.00,,,0.18,Wunderground v.1.15,2013-01-09 03:16:00,
2013-01-08 22:19:00,37.3,31.4,30.42,ESE,103,0.0,1.0,79,0.00,,,0.18,Wunderground v.1.15,2013-01-09 03:19:00,
2013-01-08 22:23:00,37.3,31.4,30.42,ESE,103,0.0,0.0,79,0.00,,,0.18,Wunderground v.1.15,2013-01-09 03:23:00,
2013-01-08 22:25:00,37.4,31.5,30.41,ESE,103,0.0,0.0,79,0.00,,,0.18,Wunderground v.1.15,2013-01-09 03:25:00,
2013-01-08 22:26:00,37.5,31.6,30.41,ESE,103,0.0,0.0,79,0.00,,,0.18,Wunderground v.1.15,2013-01-09 03:26:00,
2013-01-08 22:31:00,37.7,31.5,30.42,ESE,103,0.0,2.0,78,0.00,,,0.18,Wunderground v.1.15,2013-01-09 03:31:00,
2013-01-08 22:32:00,37.7,31.5,30.41,ESE,103,0.0,2.0,78,0.00,,,0.18,Wunderground v.1.15,2013-01-09 03:32:00,
2013-01-08 22:33:00,37.8,31.6,30.42,ESE,103,0.0,2.0,78,0.00,,,0.18,Wunderground v.1.15,2013-01-09 03:33:00,
2013-01-08 22:34:00,37.8,31.6,30.42,ESE,103,0.0,2.0,78,0.00,,,0.18,Wunderground v.1.15,2013-01-09 03:34:00,
2013-01-08 22:37:00,37.9,31.7,30.42,ESE,103,0.0,2.0,78,0.00,,,0.18,Wunderground v.1.15,2013-01-09 03:37:00,
2013-01-08 22:38:00,37.9,31.7,30.42,ESE,103,0.0,2.0,78,0.00,,,0.18,Wunderground v.1.15,2013-01-09 03:38:00,
2013-01-08 22:43:00,37.6,31.4,30.41,ESE,103,0.0,0.0,78,0.00,,,0.18,Wunderground v.1.15,2013-01-09 03:43:00,
2013-01-08 22:45:00,37.6,31.4,30.41,ESE,103,0.0,0.0,78,0.00,,,0.18,Wunderground v.1.15,2013-01-09 03:45:00,
2013-01-08 22:46:00,37.6,31.4,30.41,ESE,103,0.0,0.0,78,0.00,,,0.18,Wunderground v.1.15,2013-01-09 03:46:00,
2013-01-08 22:47:00,37.7,31.5,30.41,ESE,103,0.0,0.0,78,0.00,,,0.18,Wunderground v.1.15,2013-01-09 03:47:00,
2013-01-08 22:49:00,37.7,31.5,30.41,ESE,103,0.0,0.0,78,0.00,,,0.18,Wunderground v.1.15,2013-01-09 03:49:00,
2013-01-08 22:52:00,37.9,31.7,30.41,ESE,103,0.0,0.0,78,0.00,,,0.18,Wunderground v.1.15,2013-01-09 03:52:00,
2013-01-08 22:53:00,37.7,31.5,30.41,ESE,103,0.0,0.0,78,0.00,,,0.18,Wunderground v.1.15,2013-01-09 03:53:00,
2013-01-08 22:55:00,37.6,31.4,30.41,ESE,103,0.0,0.0,78,0.00,,,0.18,Wunderground v.1.15,2013-01-09 03:55:00,
2013-01-08 23:00:00,37.3,31.4,30.42,ESE,103,0.0,0.0,79,0.00,,,0.18,Wunderground v.1.15,2013-01-09 04:00:00,
2013-01-08 23:02:00,37.3,31.4,30.42,ESE,103,0.0,2.0,79,0.00,,,0.18,Wunderground v.1.15,2013-01-09 04:02:00,
2013-01-08 23:03:00,37.3,31.4,30.41,ESE,103,0.0,2.0,79,0.00,,,0.18,Wunderground v.1.15,2013-01-09 04:03:00,
2013-01-08 23:06:00,37.1,31.2,30.41,ESE,103,0.0,2.0,79,0.00,,,0.18,Wunderground v.1.15,2013-01-09 04:06:00,
2013-01-08 23:08:00,37.1,31.2,30.41,ESE,103,0.0,2.0,79,0.00,,,0.18,Wunderground v.1.15,2013-01-09 04:08:00,
2013-01-08 23:10:00,37.1,31.2,30.41,ESE,103,0.0,0.0,79,0.00,,,0.18,Wunderground v.1.15,2013-01-09 04:10:00,
2013-01-08 23:12:00,37.2,31.6,30.41,ESE,103,0.0,0.0,80,0.00,,,0.18,Wunderground v.1.15,2013-01-09 04:12:00,
2013-01-08 23:15:00,37.2,31.6,30.41,ESE,103,0.0,0.0,80,0.00,,,0.18,Wunderground v.1.15,2013-01-09 04:15:00,
2013-01-08 23:17:00,37.3,31.7,30.41,ESE,103,0.0,0.0,80,0.00,,,0.18,Wunderground v.1.15,2013-01-09 04:17:00,
2013-01-08 23:20:00,37.3,31.7,30.41,ESE,103,0.0,0.0,80,0.00,,,0.18,Wunderground v.1.15,2013-01-09 04:20:00,
2013-01-08 23:21:00,37.2,31.6,30.41,ESE,103,0.0,0.0,80,0.00,,,0.18,Wunderground v.1.15,2013-01-09 04:21:00,
2013-01-08 23:23:00,37.1,31.5,30.41,ESE,103,0.0,0.0,80,0.00,,,0.18,Wunderground v.1.15,2013-01-09 04:23:00,
2013-01-08 23:26:00,37.0,31.4,30.41,ESE,103,0.0,0.0,80,0.00,,,0.18,Wunderground v.1.15,2013-01-09 04:26:00,
2013-01-08 23:27:00,37.0,31.4,30.41,ESE,103,0.0,0.0,80,0.00,,,0.18,Wunderground v.1.15,2013-01-09 04:27:00,
2013-01-08 23:29:00,37.0,31.4,30.41,ESE,103,0.0,0.0,80,0.00,,,0.18,Wunderground v.1.15,2013-01-09 04:29:00,
2013-01-08 23:34:00,37.0,31.4,30.41,ESE,103,0.0,0.0,80,0.00,,,0.18,Wunderground v.1.15,2013-01-09 04:34:00,
2013-01-08 23:35:00,37.0,31.4,30.41,ESE,103,0.0,0.0,80,0.00,,,0.18,Wunderground v.1.15,2013-01-09 04:35:00,
2013-01-08 23:40:00,36.8,30.9,30.41,ESE,103,0.0,0.0,79,0.00,,,0.18,Wunderground v.1.15,2013-01-09 04:40:00,
2013-01-08 23:43:00,36.4,30.5,30.41,ESE,103,0.0,0.0,79,0.00,,,0.18,Wunderground v.1.15,2013-01-09 04:43:00,
2013-01-08 23:46:00,35.9,30.3,30.40,ESE,103,0.0,0.0,80,0.00,,,0.18,Wunderground v.1.15,2013-01-09 04:46:00,
2013-01-08 23:49:00,35.3,29.7,30.40,ESE,103,0.0,0.0,80,0.00,,,0.18,Wunderground v.1.15,2013-01-09 04:49:00,
2013-01-08 23:51:00,35.1,29.9,30.40,ESE,103,0.0,0.0,81,0.00,,,0.18,Wunderground v.1.15,2013-01-09 04:51:00,
2013-01-08 23:53:00,35.2,30.0,30.40,ESE,103,0.0,0.0,81,0.00,,,0.18,Wunderground v.1.15,2013-01-09 04:53:00,
2013-01-08 23:56:00,35.7,30.4,30.40,ESE,103,0.0,0.0,81,0.00,,,0.18,Wunderground v.1.15,2013-01-09 04:56:00,
2013-01-08 23:57:00,35.9,30.6,30.41,ESE,103,0.0,0.0,81,0.00,,,0.18,Wunderground v.1.15,2013-01-09 04:57:00,
2013-01-08 23:58:00,36.1,30.5,30.41,ESE,103,0.0,0.0,80,0.00,,,0.18,Wunderground v.1.15,2013-01-09 04:58:00,
2013-01-08 23:59:00,36.2,30.6,30.41,ESE,103,0.0,0.0,80,0.00,,,0.18,Wunderground v.1.15,2013-01-09 04:59:00,